AAY1297 KSHV-KSFB
Flight info
| Callsign | AAY1297 |
|---|---|
| Flight time | N/A |
| Altitude | 37000 |
| Route | EMG SWB MCB CEW DEFUN CABLO BITTE SHREK2 |
| Aircraft | A320/M-SDE3FGHIRWY/LB1 |
Departure
| Time | 2026-04-12 21:38 |
|---|---|
| Airport | Shreveport Regional Airport (KSHV) |
Arrival
| Time | N/A |
|---|---|
| Airport | Orlando Sanford International Airport (KSFB) |
| Time | Latitude | Longitude | Altitude | Speed | Heading |
|---|---|---|---|---|---|
| 2026-04-12 21:06 | 32.45335 | -93.83075 | 254 ft | 0 kts | 104° |
| 2026-04-12 21:29 | 32.45335 | -93.83076 | 254 ft | 1 kts | 105° |
| 2026-04-12 21:30 | 32.45334 | -93.83092 | 254 ft | 2 kts | 57° |
| 2026-04-12 21:30 | 32.45322 | -93.83103 | 254 ft | 2 kts | 13° |
| 2026-04-12 21:30 | 32.45307 | -93.83102 | 253 ft | 2 kts | 329° |
| 2026-04-12 21:30 | 32.45300 | -93.83094 | 253 ft | 0 kts | 315° |
| 2026-04-12 21:31 | 32.45298 | -93.83092 | 253 ft | 0 kts | 317° |
| 2026-04-12 21:33 | 32.45304 | -93.83098 | 253 ft | 2 kts | 322° |
| 2026-04-12 21:33 | 32.45324 | -93.83115 | 254 ft | 5 kts | 323° |
| 2026-04-12 21:34 | 32.45358 | -93.83145 | 254 ft | 6 kts | 322° |
| 2026-04-12 21:34 | 32.45392 | -93.83176 | 256 ft | 5 kts | 319° |
| 2026-04-12 21:34 | 32.45398 | -93.83218 | 256 ft | 5 kts | 243° |
| 2026-04-12 21:34 | 32.45383 | -93.83264 | 256 ft | 6 kts | 272° |
| 2026-04-12 21:35 | 32.45410 | -93.83309 | 256 ft | 7 kts | 321° |
| 2026-04-12 21:35 | 32.45443 | -93.83355 | 257 ft | 7 kts | 281° |
| 2026-04-12 21:35 | 32.45431 | -93.83400 | 257 ft | 0 kts | 233° |
| 2026-04-12 21:36 | 32.45421 | -93.83416 | 257 ft | 5 kts | 232° |
| 2026-04-12 21:37 | 32.45385 | -93.83467 | 257 ft | 8 kts | 215° |
| 2026-04-12 21:37 | 32.45325 | -93.83437 | 256 ft | 14 kts | 142° |
| 2026-04-12 21:37 | 32.45039 | -93.83180 | 249 ft | 87 kts | 143° |
| 2026-04-12 21:37 | 32.44394 | -93.82598 | 228 ft | 145 kts | 142° |
| 2026-04-12 21:38 | 32.43512 | -93.81800 | 530 ft | 165 kts | 145° |
| 2026-04-12 21:38 | 32.42555 | -93.80942 | 951 ft | 181 kts | 145° |
| 2026-04-12 21:38 | 32.41583 | -93.79908 | 1442 ft | 198 kts | 137° |
| 2026-04-12 21:38 | 32.40739 | -93.78570 | 1999 ft | 207 kts | 126° |
| 2026-04-12 21:39 | 32.40319 | -93.76913 | 2516 ft | 226 kts | 93° |
| 2026-04-12 21:39 | 32.40710 | -93.74985 | 2856 ft | 253 kts | 76° |
| 2026-04-12 21:39 | 32.41147 | -93.72913 | 3223 ft | 265 kts | 94° |
| 2026-04-12 21:39 | 32.41012 | -93.70748 | 3822 ft | 269 kts | 103° |
| 2026-04-12 21:40 | 32.40751 | -93.68568 | 4548 ft | 273 kts | 102° |
| 2026-04-12 21:40 | 32.40523 | -93.66347 | 5267 ft | 278 kts | 99° |
| 2026-04-12 21:40 | 32.40336 | -93.64054 | 6009 ft | 282 kts | 98° |
| 2026-04-12 21:40 | 32.40179 | -93.61731 | 6748 ft | 287 kts | 98° |
| 2026-04-12 21:41 | 32.39830 | -93.59418 | 7472 ft | 288 kts | 110° |
| 2026-04-12 21:41 | 32.39069 | -93.57254 | 8199 ft | 290 kts | 121° |
| 2026-04-12 21:41 | 32.38106 | -93.55135 | 8938 ft | 294 kts | 122° |
| 2026-04-12 21:41 | 32.37112 | -93.53022 | 9672 ft | 299 kts | 122° |
| 2026-04-12 21:42 | 32.36094 | -93.50856 | 10385 ft | 305 kts | 122° |
| 2026-04-12 21:42 | 32.35051 | -93.48624 | 10826 ft | 321 kts | 121° |
| 2026-04-12 21:42 | 32.33965 | -93.46293 | 11357 ft | 331 kts | 121° |
| 2026-04-12 21:42 | 32.32845 | -93.43870 | 12059 ft | 335 kts | 121° |
| 2026-04-12 21:43 | 32.31737 | -93.41476 | 12744 ft | 339 kts | 122° |
| 2026-04-12 21:43 | 32.30602 | -93.39014 | 13430 ft | 343 kts | 122° |
| 2026-04-12 21:43 | 32.29455 | -93.36535 | 14092 ft | 346 kts | 122° |
| 2026-04-12 21:43 | 32.28302 | -93.34041 | 14754 ft | 349 kts | 122° |
| 2026-04-12 21:44 | 32.27135 | -93.31519 | 15411 ft | 351 kts | 122° |
| 2026-04-12 21:44 | 32.25950 | -93.28964 | 16036 ft | 354 kts | 122° |
| 2026-04-12 21:44 | 32.24775 | -93.26427 | 16647 ft | 357 kts | 122° |
| 2026-04-12 21:44 | 32.23589 | -93.23872 | 17241 ft | 359 kts | 122° |
| 2026-04-12 21:45 | 32.22375 | -93.21255 | 17837 ft | 362 kts | 123° |
| 2026-04-12 21:45 | 32.21168 | -93.18654 | 18372 ft | 365 kts | 123° |
| 2026-04-12 21:45 | 32.19952 | -93.16041 | 18927 ft | 368 kts | 122° |
| 2026-04-12 21:45 | 32.18706 | -93.13365 | 19449 ft | 371 kts | 122° |
| 2026-04-12 21:46 | 32.17477 | -93.10723 | 19961 ft | 374 kts | 123° |
| 2026-04-12 21:46 | 32.16222 | -93.08025 | 20462 ft | 377 kts | 123° |
| 2026-04-12 21:46 | 32.14943 | -93.05281 | 20987 ft | 380 kts | 123° |
| 2026-04-12 21:46 | 32.13670 | -93.02561 | 21488 ft | 382 kts | 122° |
| 2026-04-12 21:47 | 32.12394 | -92.99825 | 21975 ft | 385 kts | 123° |
| 2026-04-12 21:47 | 32.11109 | -92.97073 | 22423 ft | 388 kts | 123° |
| 2026-04-12 21:47 | 32.09794 | -92.94269 | 22887 ft | 391 kts | 123° |
| 2026-04-12 21:47 | 32.08487 | -92.91472 | 23374 ft | 393 kts | 123° |
| 2026-04-12 21:48 | 32.07161 | -92.88637 | 23844 ft | 395 kts | 123° |
| 2026-04-12 21:48 | 32.05834 | -92.85803 | 24291 ft | 398 kts | 123° |
| 2026-04-12 21:48 | 32.04502 | -92.82958 | 24763 ft | 399 kts | 123° |
| 2026-04-12 21:48 | 32.03153 | -92.80085 | 25206 ft | 401 kts | 123° |
| 2026-04-12 21:49 | 32.01791 | -92.77190 | 25629 ft | 404 kts | 124° |
| 2026-04-12 21:49 | 32.00447 | -92.74331 | 26048 ft | 406 kts | 123° |
| 2026-04-12 21:49 | 31.99070 | -92.71393 | 26453 ft | 408 kts | 123° |
| 2026-04-12 21:49 | 31.97806 | -92.68404 | 26838 ft | 413 kts | 119° |
| 2026-04-12 21:50 | 31.96715 | -92.65279 | 27248 ft | 417 kts | 115° |
| 2026-04-12 21:50 | 31.95791 | -92.62022 | 27624 ft | 421 kts | 112° |
| 2026-04-12 21:50 | 31.94917 | -92.58733 | 27968 ft | 424 kts | 112° |
| 2026-04-12 21:50 | 31.94043 | -92.55411 | 28319 ft | 426 kts | 112° |
| 2026-04-12 21:51 | 31.93165 | -92.52090 | 28658 ft | 428 kts | 112° |
| 2026-04-12 21:51 | 31.92278 | -92.48743 | 28990 ft | 431 kts | 112° |
| 2026-04-12 21:51 | 31.91373 | -92.45348 | 29316 ft | 433 kts | 112° |
| 2026-04-12 21:51 | 31.90469 | -92.41960 | 29629 ft | 435 kts | 112° |
| 2026-04-12 21:52 | 31.89568 | -92.38589 | 29925 ft | 438 kts | 112° |
| 2026-04-12 21:52 | 31.88644 | -92.35137 | 30232 ft | 440 kts | 112° |
| 2026-04-12 21:52 | 31.87722 | -92.31696 | 30535 ft | 442 kts | 113° |
| 2026-04-12 21:52 | 31.86796 | -92.28245 | 30861 ft | 443 kts | 113° |
| 2026-04-12 21:53 | 31.85872 | -92.24805 | 31152 ft | 445 kts | 113° |
| 2026-04-12 21:53 | 31.84934 | -92.21325 | 31444 ft | 446 kts | 113° |
| 2026-04-12 21:53 | 31.84007 | -92.17884 | 31706 ft | 448 kts | 113° |
| 2026-04-12 21:53 | 31.83061 | -92.14386 | 31989 ft | 449 kts | 113° |
| 2026-04-12 21:54 | 31.82112 | -92.10870 | 32221 ft | 452 kts | 113° |
| 2026-04-12 21:54 | 31.81159 | -92.07349 | 32466 ft | 453 kts | 113° |
| 2026-04-12 21:54 | 31.80204 | -92.03822 | 32708 ft | 455 kts | 113° |
| 2026-04-12 21:54 | 31.79252 | -92.00318 | 32944 ft | 456 kts | 113° |
| 2026-04-12 21:55 | 31.78282 | -91.96743 | 33175 ft | 458 kts | 113° |
| 2026-04-12 21:55 | 31.77318 | -91.93205 | 33413 ft | 459 kts | 113° |
| 2026-04-12 21:55 | 31.76342 | -91.89628 | 33627 ft | 461 kts | 113° |
| 2026-04-12 21:55 | 31.75364 | -91.86041 | 33850 ft | 462 kts | 112° |
| 2026-04-12 21:56 | 31.74391 | -91.82475 | 34149 ft | 462 kts | 113° |
| 2026-04-12 21:56 | 31.73420 | -91.78915 | 34457 ft | 462 kts | 113° |
| 2026-04-12 21:56 | 31.72433 | -91.75300 | 34749 ft | 461 kts | 113° |
| 2026-04-12 21:56 | 31.71460 | -91.71753 | 35039 ft | 461 kts | 112° |
| 2026-04-12 21:57 | 31.70485 | -91.68192 | 35313 ft | 461 kts | 113° |
| 2026-04-12 21:57 | 31.69494 | -91.64583 | 35518 ft | 462 kts | 112° |
| 2026-04-12 21:57 | 31.68506 | -91.60992 | 35676 ft | 464 kts | 112° |
| 2026-04-12 21:57 | 31.67525 | -91.57430 | 35856 ft | 465 kts | 113° |
| 2026-04-12 21:58 | 31.66523 | -91.53796 | 36026 ft | 466 kts | 112° |
| 2026-04-12 21:58 | 31.65527 | -91.50188 | 36230 ft | 467 kts | 112° |
| 2026-04-12 21:58 | 31.64536 | -91.46594 | 36400 ft | 467 kts | 112° |
| 2026-04-12 21:58 | 31.63527 | -91.42944 | 36533 ft | 469 kts | 113° |
| 2026-04-12 21:59 | 31.62521 | -91.39310 | 36687 ft | 470 kts | 113° |
| 2026-04-12 21:59 | 31.61516 | -91.35689 | 36837 ft | 471 kts | 112° |
| 2026-04-12 21:59 | 31.60508 | -91.32063 | 36958 ft | 472 kts | 113° |
| 2026-04-12 21:59 | 31.59483 | -91.28373 | 37055 ft | 473 kts | 113° |
| 2026-04-12 22:00 | 31.58464 | -91.24716 | 37162 ft | 474 kts | 113° |
| 2026-04-12 22:00 | 31.57439 | -91.21038 | 37164 ft | 476 kts | 113° |
| 2026-04-12 22:00 | 31.55392 | -91.13708 | 37166 ft | 477 kts | 113° |
| 2026-04-12 22:01 | 31.53335 | -91.06356 | 37163 ft | 475 kts | 113° |
| 2026-04-12 22:01 | 31.51266 | -90.98984 | 37157 ft | 476 kts | 113° |
| 2026-04-12 22:02 | 31.49201 | -90.91647 | 37161 ft | 477 kts | 112° |
| 2026-04-12 22:02 | 31.47139 | -90.84333 | 37162 ft | 476 kts | 113° |
| 2026-04-12 22:03 | 31.45060 | -90.76983 | 37164 ft | 477 kts | 112° |
| 2026-04-12 22:03 | 31.42978 | -90.69634 | 37167 ft | 478 kts | 112° |
| 2026-04-12 22:04 | 31.40889 | -90.62272 | 37169 ft | 477 kts | 112° |
| 2026-04-12 22:04 | 31.38791 | -90.54910 | 37171 ft | 478 kts | 112° |
| 2026-04-12 22:05 | 31.36689 | -90.47550 | 37175 ft | 478 kts | 112° |
| 2026-04-12 22:05 | 31.34594 | -90.40221 | 37176 ft | 478 kts | 112° |
| 2026-04-12 22:06 | 31.32469 | -90.32821 | 37181 ft | 479 kts | 112° |
| 2026-04-12 22:06 | 31.30593 | -90.25382 | 37182 ft | 482 kts | 106° |
| 2026-04-12 22:07 | 31.29433 | -90.17669 | 37187 ft | 483 kts | 101° |
| 2026-04-12 22:07 | 31.28527 | -90.09927 | 37184 ft | 482 kts | 101° |
| 2026-04-12 22:08 | 31.27612 | -90.02198 | 37188 ft | 483 kts | 101° |
| 2026-04-12 22:08 | 31.26676 | -89.94433 | 37189 ft | 484 kts | 101° |
| 2026-04-12 22:09 | 31.25732 | -89.86681 | 37189 ft | 484 kts | 101° |
| 2026-04-12 22:09 | 31.24781 | -89.78931 | 37194 ft | 484 kts | 101° |
| 2026-04-12 22:10 | 31.23824 | -89.71169 | 37192 ft | 483 kts | 101° |
| 2026-04-12 22:10 | 31.22865 | -89.63427 | 37196 ft | 484 kts | 101° |
| 2026-04-12 22:11 | 31.21899 | -89.55671 | 37203 ft | 484 kts | 100° |
| 2026-04-12 22:11 | 31.20928 | -89.47908 | 37199 ft | 484 kts | 100° |
| 2026-04-12 22:12 | 31.19958 | -89.40183 | 37208 ft | 484 kts | 100° |
| 2026-04-12 22:12 | 31.18976 | -89.32423 | 37219 ft | 484 kts | 101° |
| 2026-04-12 22:13 | 31.17991 | -89.24662 | 37223 ft | 483 kts | 101° |
| 2026-04-12 22:13 | 31.17001 | -89.16906 | 37227 ft | 484 kts | 101° |
| 2026-04-12 22:14 | 31.16011 | -89.09190 | 37224 ft | 483 kts | 101° |
| 2026-04-12 22:14 | 31.15012 | -89.01435 | 37214 ft | 484 kts | 101° |
| 2026-04-12 22:15 | 31.14010 | -88.93718 | 37222 ft | 485 kts | 100° |
| 2026-04-12 22:15 | 31.12995 | -88.85913 | 37228 ft | 485 kts | 101° |
| 2026-04-12 22:16 | 31.11986 | -88.78188 | 37225 ft | 486 kts | 101° |
| 2026-04-12 22:16 | 31.10965 | -88.70408 | 37229 ft | 485 kts | 101° |
| 2026-04-12 22:17 | 31.09937 | -88.62636 | 37226 ft | 486 kts | 100° |
| 2026-04-12 22:17 | 31.08905 | -88.54864 | 37222 ft | 487 kts | 100° |
| 2026-04-12 22:18 | 31.07872 | -88.47122 | 37228 ft | 487 kts | 100° |
| 2026-04-12 22:18 | 31.06827 | -88.39295 | 37232 ft | 488 kts | 100° |
| 2026-04-12 22:19 | 31.05782 | -88.31531 | 37229 ft | 488 kts | 100° |
| 2026-04-12 22:19 | 31.04727 | -88.23730 | 37230 ft | 490 kts | 101° |
| 2026-04-12 22:20 | 31.03665 | -88.15905 | 37228 ft | 490 kts | 100° |
| 2026-04-12 22:20 | 31.02599 | -88.08089 | 37232 ft | 490 kts | 100° |
| 2026-04-12 22:21 | 31.01525 | -88.00251 | 37223 ft | 491 kts | 100° |
| 2026-04-12 22:21 | 31.00452 | -87.92445 | 37222 ft | 490 kts | 100° |
| 2026-04-12 22:22 | 30.99370 | -87.84644 | 37227 ft | 491 kts | 99° |
| 2026-04-12 22:22 | 30.98279 | -87.76799 | 37249 ft | 490 kts | 99° |
| 2026-04-12 22:23 | 30.97189 | -87.68990 | 37253 ft | 490 kts | 99° |
| 2026-04-12 22:23 | 30.96089 | -87.61134 | 37256 ft | 491 kts | 99° |
| 2026-04-12 22:24 | 30.94992 | -87.53348 | 37250 ft | 490 kts | 99° |
| 2026-04-12 22:24 | 30.93885 | -87.45526 | 37254 ft | 490 kts | 99° |
| 2026-04-12 22:25 | 30.92773 | -87.37708 | 37249 ft | 490 kts | 99° |
| 2026-04-12 22:25 | 30.91661 | -87.29912 | 37252 ft | 491 kts | 99° |
| 2026-04-12 22:26 | 30.90538 | -87.22082 | 37248 ft | 491 kts | 99° |
| 2026-04-12 22:26 | 30.89409 | -87.14251 | 37252 ft | 492 kts | 99° |
| 2026-04-12 22:27 | 30.88286 | -87.06484 | 37258 ft | 490 kts | 99° |
| 2026-04-12 22:27 | 30.87149 | -86.98656 | 37263 ft | 490 kts | 99° |
| 2026-04-12 22:28 | 30.86018 | -86.90912 | 37263 ft | 490 kts | 99° |
| 2026-04-12 22:28 | 30.84874 | -86.83116 | 37258 ft | 490 kts | 99° |
| 2026-04-12 22:29 | 30.83724 | -86.75313 | 37260 ft | 489 kts | 99° |
| 2026-04-12 22:29 | 30.82737 | -86.67539 | 37255 ft | 489 kts | 94° |
| 2026-04-12 22:30 | 30.82425 | -86.59650 | 37271 ft | 487 kts | 89° |
| 2026-04-12 22:30 | 30.82291 | -86.51833 | 37275 ft | 487 kts | 89° |
| 2026-04-12 22:31 | 30.82138 | -86.43990 | 37275 ft | 486 kts | 89° |
| 2026-04-12 22:31 | 30.81971 | -86.36134 | 37273 ft | 485 kts | 89° |
| 2026-04-12 22:32 | 30.81796 | -86.28302 | 37268 ft | 486 kts | 90° |
| 2026-04-12 22:32 | 30.81615 | -86.20476 | 37262 ft | 485 kts | 90° |
| 2026-04-12 22:33 | 30.81430 | -86.12702 | 37263 ft | 485 kts | 90° |
| 2026-04-12 22:33 | 30.81230 | -86.04843 | 37257 ft | 485 kts | 90° |
| 2026-04-12 22:34 | 30.81023 | -85.97057 | 37260 ft | 484 kts | 90° |
| 2026-04-12 22:34 | 30.80811 | -85.89272 | 37256 ft | 484 kts | 90° |
| 2026-04-12 22:35 | 30.80593 | -85.81464 | 37255 ft | 483 kts | 89° |
| 2026-04-12 22:35 | 30.80373 | -85.73702 | 37253 ft | 483 kts | 89° |
| 2026-04-12 22:36 | 30.80150 | -85.65942 | 37259 ft | 482 kts | 89° |
| 2026-04-12 22:36 | 30.79919 | -85.58154 | 37260 ft | 481 kts | 89° |
| 2026-04-12 22:37 | 30.79686 | -85.50422 | 37254 ft | 481 kts | 89° |
| 2026-04-12 22:37 | 30.79448 | -85.42691 | 37254 ft | 481 kts | 89° |
| 2026-04-12 22:38 | 30.79203 | -85.34936 | 37265 ft | 480 kts | 90° |
| 2026-04-12 22:38 | 30.78957 | -85.27185 | 37267 ft | 480 kts | 90° |
| 2026-04-12 22:39 | 30.78705 | -85.19466 | 37268 ft | 480 kts | 90° |
| 2026-04-12 22:40 | 30.78318 | -85.07858 | 37269 ft | 479 kts | 90° |
| 2026-04-12 22:40 | 30.78054 | -85.00161 | 37262 ft | 478 kts | 90° |
| 2026-04-12 22:41 | 30.77708 | -84.92490 | 37258 ft | 480 kts | 94° |
| 2026-04-12 22:41 | 30.76328 | -84.84888 | 37273 ft | 482 kts | 106° |
| 2026-04-12 22:42 | 30.73637 | -84.77749 | 37269 ft | 485 kts | 119° |
| 2026-04-12 22:42 | 30.69918 | -84.71248 | 37269 ft | 485 kts | 125° |
| 2026-04-12 22:43 | 30.66036 | -84.64918 | 37263 ft | 485 kts | 124° |
| 2026-04-12 22:43 | 30.62141 | -84.58519 | 37269 ft | 485 kts | 124° |
| 2026-04-12 22:44 | 30.58267 | -84.52123 | 37269 ft | 486 kts | 124° |
| 2026-04-12 22:44 | 30.54410 | -84.45753 | 37269 ft | 485 kts | 124° |
| 2026-04-12 22:45 | 30.50536 | -84.39359 | 37269 ft | 486 kts | 124° |
| 2026-04-12 22:45 | 30.46638 | -84.32935 | 37277 ft | 486 kts | 124° |
| 2026-04-12 22:46 | 30.42758 | -84.26547 | 37272 ft | 485 kts | 124° |
| 2026-04-12 22:46 | 30.38881 | -84.20182 | 37268 ft | 485 kts | 124° |
| 2026-04-12 22:47 | 30.35016 | -84.13843 | 37269 ft | 485 kts | 124° |
| 2026-04-12 22:47 | 30.31111 | -84.07451 | 37270 ft | 485 kts | 124° |
| 2026-04-12 22:48 | 30.27236 | -84.01115 | 37267 ft | 486 kts | 124° |
| 2026-04-12 22:48 | 30.23333 | -83.94743 | 37265 ft | 486 kts | 124° |
| 2026-04-12 22:49 | 30.19419 | -83.88365 | 37264 ft | 485 kts | 124° |
| 2026-04-12 22:49 | 30.15541 | -83.82055 | 37265 ft | 485 kts | 124° |
| 2026-04-12 22:50 | 30.11644 | -83.75727 | 37266 ft | 485 kts | 124° |
| 2026-04-12 22:50 | 30.07719 | -83.69360 | 37270 ft | 486 kts | 124° |
| 2026-04-12 22:51 | 30.03797 | -83.63006 | 37273 ft | 486 kts | 124° |
| 2026-04-12 22:51 | 29.99872 | -83.56660 | 37271 ft | 486 kts | 123° |
| 2026-04-12 22:52 | 29.95953 | -83.50333 | 37268 ft | 487 kts | 123° |
| 2026-04-12 22:52 | 29.92021 | -83.43997 | 37258 ft | 486 kts | 123° |
| 2026-04-12 22:53 | 29.88097 | -83.37677 | 37256 ft | 487 kts | 123° |
| 2026-04-12 22:53 | 29.84147 | -83.31331 | 37244 ft | 488 kts | 124° |
| 2026-04-12 22:54 | 29.80215 | -83.25024 | 37250 ft | 487 kts | 124° |
| 2026-04-12 22:54 | 29.76252 | -83.18672 | 37251 ft | 488 kts | 124° |
| 2026-04-12 22:55 | 29.72312 | -83.12321 | 37251 ft | 487 kts | 123° |
| 2026-04-12 22:55 | 29.68498 | -83.05938 | 37259 ft | 487 kts | 122° |
| 2026-04-12 22:56 | 29.64659 | -82.99499 | 37265 ft | 487 kts | 122° |
| 2026-04-12 22:56 | 29.60834 | -82.93119 | 37261 ft | 488 kts | 122° |
| 2026-04-12 22:57 | 29.56997 | -82.86734 | 37257 ft | 488 kts | 122° |
| 2026-04-12 22:57 | 29.53113 | -82.80285 | 37259 ft | 489 kts | 122° |
| 2026-04-12 22:58 | 29.49253 | -82.73886 | 37266 ft | 489 kts | 122° |
| 2026-04-12 22:58 | 29.45387 | -82.67484 | 37271 ft | 490 kts | 122° |
| 2026-04-12 22:59 | 29.41519 | -82.61094 | 37276 ft | 489 kts | 122° |
| 2026-04-12 22:59 | 29.37659 | -82.54726 | 37275 ft | 489 kts | 122° |
| 2026-04-12 23:00 | 29.33777 | -82.48326 | 37283 ft | 490 kts | 121° |
| 2026-04-12 23:00 | 29.29895 | -82.41933 | 37285 ft | 489 kts | 122° |
| 2026-04-12 23:01 | 29.25986 | -82.35516 | 37285 ft | 490 kts | 121° |
| 2026-04-12 23:01 | 29.22103 | -82.29144 | 37289 ft | 490 kts | 122° |
| 2026-04-12 23:02 | 29.18214 | -82.22778 | 37290 ft | 491 kts | 122° |
| 2026-04-12 23:02 | 29.14306 | -82.16387 | 37291 ft | 490 kts | 122° |
| 2026-04-12 23:03 | 29.10414 | -82.10017 | 37292 ft | 489 kts | 122° |
| 2026-04-12 23:03 | 29.06504 | -82.03622 | 37292 ft | 489 kts | 121° |
| 2026-04-12 23:04 | 29.02618 | -81.97281 | 37297 ft | 489 kts | 121° |
| 2026-04-12 23:04 | 28.98744 | -81.90967 | 37296 ft | 489 kts | 122° |
| 2026-04-12 23:05 | 28.94807 | -81.84610 | 37303 ft | 489 kts | 122° |
| 2026-04-12 23:05 | 28.90877 | -81.78281 | 37302 ft | 490 kts | 122° |
| 2026-04-12 23:06 | 28.87368 | -81.71709 | 37300 ft | 483 kts | 108° |
| 2026-04-12 23:06 | 28.85098 | -81.64563 | 37309 ft | 481 kts | 106° |
| 2026-04-12 23:07 | 28.82626 | -81.57483 | 37315 ft | 480 kts | 108° |
| 2026-04-12 23:07 | 28.80036 | -81.50494 | 37307 ft | 480 kts | 108° |
| 2026-04-12 23:07 | 28.78720 | -81.47015 | 37301 ft | 468 kts | 108° |
| 2026-04-12 23:08 | 28.77514 | -81.43666 | 37293 ft | 449 kts | 101° |
| 2026-04-12 23:08 | 28.77103 | -81.40288 | 37286 ft | 418 kts | 77° |
| 2026-04-12 23:08 | 28.77796 | -81.37193 | 37308 ft | 397 kts | 54° |
| 2026-04-12 23:08 | 28.79430 | -81.34781 | 37318 ft | 379 kts | 33° |
| 2026-04-12 23:09 | 28.81627 | -81.33247 | 37323 ft | 368 kts | 17° |
| 2026-04-12 23:09 | 28.84069 | -81.32506 | 37318 ft | 360 kts | 2° |
| 2026-04-12 23:09 | 28.88900 | -81.33425 | 37328 ft | 356 kts | 333° |
| 2026-04-12 23:10 | 28.90936 | -81.35033 | 37325 ft | 360 kts | 319° |
| 2026-04-12 23:10 | 28.92646 | -81.37154 | 37310 ft | 364 kts | 310° |
| 2026-04-12 23:10 | 28.93841 | -81.39712 | 37313 ft | 374 kts | 293° |
| 2026-04-12 23:10 | 28.94279 | -81.42669 | 37317 ft | 387 kts | 277° |
| 2026-04-12 23:11 | 28.94111 | -81.48795 | 37310 ft | 387 kts | 275° |
| 2026-04-12 23:11 | 28.93924 | -81.54951 | 37302 ft | 387 kts | 275° |
| 2026-04-12 23:12 | 28.93560 | -81.61040 | 37279 ft | 396 kts | 261° |
| 2026-04-12 23:12 | 28.92308 | -81.63918 | 37294 ft | 417 kts | 238° |
| 2026-04-12 23:12 | 28.90132 | -81.66164 | 37295 ft | 434 kts | 215° |
| 2026-04-12 23:13 | 28.87277 | -81.67445 | 37297 ft | 448 kts | 192° |
| 2026-04-12 23:13 | 28.84135 | -81.67483 | 37306 ft | 455 kts | 169° |
| 2026-04-12 23:13 | 28.81192 | -81.66277 | 37293 ft | 455 kts | 146° |
| 2026-04-12 23:13 | 28.78797 | -81.63963 | 37297 ft | 447 kts | 123° |
| 2026-04-12 23:14 | 28.77335 | -81.60928 | 37299 ft | 435 kts | 100° |
| 2026-04-12 23:14 | 28.76948 | -81.57598 | 37316 ft | 418 kts | 79° |
| 2026-04-12 23:14 | 28.77741 | -81.51173 | 37307 ft | 414 kts | 76° |
| 2026-04-12 23:15 | 28.78153 | -81.44572 | 37308 ft | 419 kts | 81° |
| 2026-04-12 23:15 | 28.78183 | -81.37922 | 37316 ft | 421 kts | 83° |
| 2026-04-12 23:16 | 28.78178 | -81.31282 | 37323 ft | 421 kts | 83° |
| 2026-04-12 23:16 | 28.78191 | -81.24665 | 37318 ft | 420 kts | 83° |
| 2026-04-12 23:17 | 28.78231 | -81.18026 | 37316 ft | 418 kts | 83° |
| 2026-04-12 23:17 | 28.78276 | -81.11432 | 37318 ft | 418 kts | 83° |
| 2026-04-12 23:18 | 28.78321 | -81.04848 | 37313 ft | 417 kts | 83° |
| 2026-04-12 23:18 | 28.78359 | -80.98249 | 37317 ft | 416 kts | 83° |
| 2026-04-12 23:19 | 28.78399 | -80.91682 | 37315 ft | 417 kts | 83° |
| 2026-04-12 23:19 | 28.78447 | -80.85098 | 37314 ft | 416 kts | 82° |
| 2026-04-12 23:20 | 28.78474 | -80.78508 | 37314 ft | 416 kts | 82° |
| 2026-04-12 23:20 | 28.78499 | -80.71945 | 37318 ft | 414 kts | 82° |
| 2026-04-12 23:21 | 28.78519 | -80.65399 | 37320 ft | 414 kts | 82° |
| 2026-04-12 23:21 | 28.78539 | -80.58893 | 37319 ft | 414 kts | 82° |
| 2026-04-12 23:22 | 28.78556 | -80.52321 | 37324 ft | 413 kts | 82° |
| 2026-04-12 23:22 | 28.78583 | -80.45805 | 37320 ft | 413 kts | 82° |
| 2026-04-12 23:23 | 28.78604 | -80.39279 | 37322 ft | 412 kts | 82° |
| 2026-04-12 23:23 | 28.78617 | -80.32782 | 37327 ft | 411 kts | 82° |
| 2026-04-12 23:24 | 28.78632 | -80.26301 | 37326 ft | 412 kts | 82° |
| 2026-04-12 23:24 | 28.78652 | -80.19766 | 37322 ft | 412 kts | 82° |
| 2026-04-12 23:25 | 28.78663 | -80.13295 | 37328 ft | 411 kts | 82° |
| 2026-04-12 23:25 | 28.78668 | -80.06772 | 37322 ft | 411 kts | 82° |
| 2026-04-12 23:26 | 28.78679 | -80.00315 | 37321 ft | 410 kts | 82° |
| 2026-04-12 23:26 | 28.78681 | -79.93842 | 37324 ft | 410 kts | 82° |
| 2026-04-12 23:27 | 28.78682 | -79.87370 | 37316 ft | 409 kts | 82° |
| 2026-04-12 23:27 | 28.78686 | -79.80906 | 37320 ft | 409 kts | 82° |
| 2026-04-12 23:28 | 28.78686 | -79.74406 | 37317 ft | 410 kts | 82° |
| 2026-04-12 23:28 | 28.78683 | -79.67922 | 37318 ft | 411 kts | 82° |
| 2026-04-12 23:29 | 28.78678 | -79.61466 | 37317 ft | 411 kts | 82° |
| 2026-04-12 23:29 | 28.78680 | -79.54953 | 37312 ft | 410 kts | 81° |
| 2026-04-12 23:30 | 28.78683 | -79.48483 | 37312 ft | 411 kts | 81° |
| 2026-04-12 23:30 | 28.78679 | -79.42030 | 37309 ft | 409 kts | 82° |
| 2026-04-12 23:31 | 28.78684 | -79.35535 | 37317 ft | 408 kts | 81° |
| 2026-04-12 23:31 | 28.78680 | -79.29092 | 37319 ft | 410 kts | 82° |
| 2026-04-12 23:32 | 28.78678 | -79.22621 | 37310 ft | 410 kts | 82° |
| 2026-04-12 23:32 | 28.78686 | -79.16162 | 37316 ft | 409 kts | 82° |
| 2026-04-12 23:33 | 28.78695 | -79.09699 | 37312 ft | 409 kts | 82° |
| 2026-04-12 23:33 | 28.78697 | -79.03229 | 37317 ft | 409 kts | 82° |
| 2026-04-12 23:34 | 28.78697 | -78.96729 | 37310 ft | 409 kts | 82° |
| 2026-04-12 23:34 | 28.78705 | -78.90276 | 37300 ft | 410 kts | 81° |
| 2026-04-12 23:35 | 28.78712 | -78.83818 | 37299 ft | 409 kts | 81° |
| 2026-04-12 23:35 | 28.78722 | -78.77330 | 37304 ft | 409 kts | 81° |
| 2026-04-12 23:36 | 28.78726 | -78.70876 | 37305 ft | 409 kts | 81° |
| 2026-04-12 23:36 | 28.78728 | -78.64450 | 37308 ft | 409 kts | 81° |
| 2026-04-12 23:37 | 28.78740 | -78.57968 | 37311 ft | 408 kts | 81° |
| 2026-04-12 23:37 | 28.78761 | -78.51547 | 37323 ft | 408 kts | 81° |
| 2026-04-12 23:38 | 28.78783 | -78.45085 | 37317 ft | 408 kts | 81° |
| 2026-04-12 23:38 | 28.78810 | -78.38618 | 37327 ft | 408 kts | 81° |
| 2026-04-12 23:39 | 28.78830 | -78.32182 | 37314 ft | 407 kts | 81° |
| 2026-04-12 23:39 | 28.78845 | -78.25729 | 37325 ft | 408 kts | 81° |
| 2026-04-12 23:40 | 28.78869 | -78.19276 | 37313 ft | 408 kts | 81° |
| 2026-04-12 23:40 | 28.78901 | -78.12842 | 37317 ft | 407 kts | 81° |
| 2026-04-12 23:41 | 28.78928 | -78.06408 | 37323 ft | 407 kts | 81° |
| 2026-04-12 23:41 | 28.78954 | -77.99971 | 37327 ft | 407 kts | 81° |
| 2026-04-12 23:42 | 28.78982 | -77.93527 | 37311 ft | 407 kts | 81° |
| 2026-04-12 23:43 | 28.79042 | -77.83884 | 37320 ft | 408 kts | 81° |
| 2026-04-12 23:43 | 28.79086 | -77.77441 | 37318 ft | 408 kts | 81° |
| 2026-04-12 23:44 | 28.79126 | -77.71019 | 37316 ft | 406 kts | 81° |
| 2026-04-12 23:44 | 28.79167 | -77.64602 | 37322 ft | 406 kts | 81° |
| 2026-04-12 23:45 | 28.79221 | -77.58166 | 37323 ft | 404 kts | 81° |
| 2026-04-12 23:45 | 28.79266 | -77.51806 | 37318 ft | 404 kts | 80° |
| 2026-04-12 23:46 | 28.79302 | -77.45394 | 37319 ft | 404 kts | 80° |
| 2026-04-12 23:46 | 28.79347 | -77.39036 | 37313 ft | 405 kts | 80° |
| 2026-04-12 23:47 | 28.79404 | -77.32605 | 37313 ft | 405 kts | 81° |
| 2026-04-12 23:47 | 28.79464 | -77.26224 | 37314 ft | 405 kts | 81° |
| 2026-04-12 23:48 | 28.79517 | -77.19809 | 37321 ft | 406 kts | 81° |
| 2026-04-12 23:48 | 28.79583 | -77.13403 | 37322 ft | 403 kts | 81° |
| 2026-04-12 23:49 | 28.79656 | -77.07047 | 37312 ft | 403 kts | 81° |
| 2026-04-12 23:49 | 28.79728 | -77.00642 | 37321 ft | 404 kts | 80° |
| 2026-04-12 23:50 | 28.79798 | -76.94280 | 37331 ft | 403 kts | 80° |
| 2026-04-12 23:50 | 28.79873 | -76.87937 | 37330 ft | 403 kts | 80° |
| 2026-04-12 23:51 | 28.79955 | -76.81542 | 37332 ft | 403 kts | 80° |
| 2026-04-12 23:51 | 28.80057 | -76.75150 | 37324 ft | 404 kts | 80° |
| 2026-04-12 23:52 | 28.80159 | -76.68793 | 37328 ft | 403 kts | 80° |
| 2026-04-12 23:52 | 28.80259 | -76.62395 | 37316 ft | 404 kts | 80° |
| 2026-04-12 23:53 | 28.80367 | -76.56055 | 37309 ft | 403 kts | 80° |
| 2026-04-12 23:53 | 28.80475 | -76.49676 | 37312 ft | 403 kts | 80° |
| 2026-04-12 23:54 | 28.80592 | -76.43296 | 37317 ft | 402 kts | 80° |
| 2026-04-12 23:54 | 28.80709 | -76.36910 | 37321 ft | 404 kts | 79° |
| 2026-04-12 23:55 | 28.80827 | -76.30557 | 37318 ft | 404 kts | 80° |
| 2026-04-12 23:55 | 28.80952 | -76.24146 | 37317 ft | 403 kts | 80° |
| 2026-04-12 23:56 | 28.81087 | -76.17786 | 37314 ft | 404 kts | 80° |
| 2026-04-12 23:56 | 28.81228 | -76.11388 | 37315 ft | 405 kts | 80° |
| 2026-04-12 23:57 | 28.81362 | -76.04988 | 37317 ft | 404 kts | 80° |
| 2026-04-12 23:57 | 28.81503 | -75.98613 | 37319 ft | 403 kts | 80° |
| 2026-04-12 23:58 | 28.81655 | -75.92287 | 37322 ft | 403 kts | 80° |
| 2026-04-12 23:58 | 28.81818 | -75.85894 | 37318 ft | 404 kts | 80° |
| 2026-04-12 23:59 | 28.81996 | -75.79484 | 37325 ft | 404 kts | 79° |
| 2026-04-12 23:59 | 28.82177 | -75.73105 | 37319 ft | 403 kts | 79° |
| 2026-04-13 00:00 | 28.82375 | -75.66733 | 37318 ft | 402 kts | 79° |
| 2026-04-13 00:00 | 28.82575 | -75.60377 | 37323 ft | 402 kts | 79° |
| 2026-04-13 00:01 | 28.82778 | -75.54049 | 37327 ft | 403 kts | 79° |
| 2026-04-13 00:01 | 28.82985 | -75.47680 | 37320 ft | 402 kts | 79° |
| 2026-04-13 00:02 | 28.83204 | -75.41313 | 37323 ft | 403 kts | 79° |
| 2026-04-13 00:02 | 28.83439 | -75.34954 | 37322 ft | 403 kts | 80° |
| 2026-04-13 00:03 | 28.83693 | -75.28578 | 37323 ft | 402 kts | 79° |
| 2026-04-13 00:03 | 28.83962 | -75.22223 | 37326 ft | 403 kts | 79° |
| 2026-04-13 00:04 | 28.84228 | -75.15865 | 37321 ft | 402 kts | 79° |
| 2026-04-13 00:04 | 28.84509 | -75.09515 | 37328 ft | 403 kts | 79° |
| 2026-04-13 00:05 | 28.84806 | -75.03121 | 37325 ft | 402 kts | 79° |
| 2026-04-13 00:05 | 28.85103 | -74.96789 | 37324 ft | 401 kts | 79° |
| 2026-04-13 00:06 | 28.85411 | -74.90428 | 37322 ft | 403 kts | 79° |
| 2026-04-13 00:06 | 28.85736 | -74.84066 | 37322 ft | 404 kts | 79° |
| 2026-04-13 00:07 | 28.86078 | -74.77697 | 37319 ft | 403 kts | 79° |
| 2026-04-13 00:07 | 28.86415 | -74.71344 | 37313 ft | 402 kts | 79° |
| 2026-04-13 00:08 | 28.86759 | -74.64987 | 37311 ft | 403 kts | 79° |
| 2026-04-13 00:08 | 28.87121 | -74.58644 | 37309 ft | 403 kts | 79° |
| 2026-04-13 00:09 | 28.87501 | -74.52293 | 37308 ft | 403 kts | 79° |
| 2026-04-13 00:09 | 28.87896 | -74.45943 | 37317 ft | 403 kts | 79° |
| 2026-04-13 00:10 | 28.88293 | -74.39580 | 37322 ft | 403 kts | 79° |
| 2026-04-13 00:10 | 28.88703 | -74.33218 | 37322 ft | 404 kts | 79° |
| 2026-04-13 00:11 | 28.89133 | -74.26835 | 37324 ft | 404 kts | 79° |
| 2026-04-13 00:11 | 28.89574 | -74.20444 | 37322 ft | 404 kts | 79° |
| 2026-04-13 00:12 | 28.90027 | -74.14079 | 37322 ft | 405 kts | 79° |
| 2026-04-13 00:12 | 28.90497 | -74.07732 | 37337 ft | 404 kts | 79° |
| 2026-04-13 00:13 | 28.90999 | -74.01318 | 37330 ft | 406 kts | 79° |
| 2026-04-13 00:13 | 28.91510 | -73.94922 | 37326 ft | 406 kts | 79° |
| 2026-04-13 00:14 | 28.92026 | -73.88565 | 37325 ft | 406 kts | 79° |
| 2026-04-13 00:14 | 28.92564 | -73.82132 | 37327 ft | 406 kts | 78° |
| 2026-04-13 00:15 | 28.93100 | -73.75756 | 37336 ft | 406 kts | 78° |
| 2026-04-13 00:15 | 28.93637 | -73.69381 | 37331 ft | 406 kts | 78° |
| 2026-04-13 00:16 | 28.94187 | -73.62953 | 37328 ft | 406 kts | 78° |
| 2026-04-13 00:16 | 28.94739 | -73.56586 | 37332 ft | 405 kts | 78° |
| 2026-04-13 00:17 | 28.95303 | -73.50227 | 37336 ft | 404 kts | 78° |
| 2026-04-13 00:17 | 28.95870 | -73.43870 | 37333 ft | 405 kts | 78° |
| 2026-04-13 00:18 | 28.96446 | -73.37502 | 37332 ft | 405 kts | 78° |
| 2026-04-13 00:18 | 28.97037 | -73.31130 | 37329 ft | 404 kts | 79° |
| 2026-04-13 00:19 | 28.97648 | -73.24783 | 37329 ft | 404 kts | 78° |
| 2026-04-13 00:19 | 28.98266 | -73.18395 | 37337 ft | 404 kts | 78° |
| 2026-04-13 00:20 | 28.98885 | -73.12038 | 37336 ft | 404 kts | 78° |
| 2026-04-13 00:20 | 28.99523 | -73.05682 | 37335 ft | 404 kts | 78° |
| 2026-04-13 00:21 | 29.00163 | -72.99349 | 37334 ft | 403 kts | 78° |
| 2026-04-13 00:21 | 29.00822 | -72.93018 | 37332 ft | 402 kts | 78° |
| 2026-04-13 00:22 | 29.01480 | -72.86694 | 37325 ft | 402 kts | 78° |
| 2026-04-13 00:22 | 29.02132 | -72.80370 | 37329 ft | 402 kts | 78° |
| 2026-04-13 00:23 | 29.02796 | -72.74017 | 37326 ft | 402 kts | 78° |
| 2026-04-13 00:23 | 29.03474 | -72.67676 | 37327 ft | 404 kts | 78° |
| 2026-04-13 00:24 | 29.04158 | -72.61340 | 37323 ft | 404 kts | 78° |
| 2026-04-13 00:24 | 29.04856 | -72.54951 | 37328 ft | 403 kts | 78° |
| 2026-04-13 00:25 | 29.05552 | -72.48636 | 37333 ft | 403 kts | 78° |
| 2026-04-13 00:25 | 29.06255 | -72.42314 | 37342 ft | 403 kts | 78° |
| 2026-04-13 00:26 | 29.06975 | -72.35966 | 37338 ft | 402 kts | 78° |
| 2026-04-13 00:26 | 29.07699 | -72.29638 | 37343 ft | 403 kts | 78° |
| 2026-04-13 00:27 | 29.08426 | -72.23322 | 37342 ft | 404 kts | 78° |
| 2026-04-13 00:27 | 29.09164 | -72.16942 | 37338 ft | 404 kts | 78° |
| 2026-04-13 00:28 | 29.09905 | -72.10611 | 37332 ft | 405 kts | 78° |
| 2026-04-13 00:28 | 29.10657 | -72.04275 | 37335 ft | 404 kts | 78° |
| 2026-04-13 00:29 | 29.11419 | -71.97920 | 37334 ft | 403 kts | 78° |
| 2026-04-13 00:29 | 29.12191 | -71.91573 | 37328 ft | 404 kts | 78° |
| 2026-04-13 00:30 | 29.12962 | -71.85238 | 37331 ft | 404 kts | 78° |
| 2026-04-13 00:30 | 29.13737 | -71.78906 | 37327 ft | 404 kts | 78° |
| 2026-04-13 00:31 | 29.14519 | -71.72572 | 37327 ft | 404 kts | 78° |
| 2026-04-13 00:31 | 29.15310 | -71.66203 | 37319 ft | 405 kts | 78° |
| 2026-04-13 00:32 | 29.16113 | -71.59854 | 37331 ft | 405 kts | 78° |
| 2026-04-13 00:32 | 29.16927 | -71.53503 | 37324 ft | 403 kts | 77° |
| 2026-04-13 00:33 | 29.17751 | -71.47272 | 37321 ft | 393 kts | 77° |
| 2026-04-13 00:33 | 29.18579 | -71.41187 | 37323 ft | 383 kts | 77° |
| 2026-04-13 00:34 | 29.19398 | -71.35256 | 37327 ft | 374 kts | 77° |
| 2026-04-13 00:34 | 29.20137 | -71.29474 | 37109 ft | 363 kts | 84° |
| 2026-04-13 00:34 | 29.19768 | -71.26581 | 35561 ft | 400 kts | 117° |
| 2026-04-13 00:35 | 29.17638 | -71.24592 | 32869 ft | 464 kts | 175° |
| 2026-04-13 00:35 | 29.15218 | -71.26175 | 26265 ft | 545 kts | 261° |
| 2026-04-13 00:35 | 29.16065 | -71.29127 | 16282 ft | 593 kts | 326° |
| 2026-04-13 00:35 | 29.18785 | -71.29596 | 5400 ft | 601 kts | 24° |
| 2026-04-13 00:36 | 29.20360 | -71.27954 | 1 ft | 5 kts | 52° |
| 2026-04-13 00:36 | 29.20378 | -71.27933 | 1 ft | 2 kts | 37° |
| 2026-04-13 00:36 | 29.20391 | -71.27921 | 1 ft | 1 kts | 26° |
| 2026-04-13 00:36 | 29.20400 | -71.27914 | 1 ft | 1 kts | 18° |
| 2026-04-13 00:37 | 29.20413 | -71.27912 | 1 ft | 0 kts | 1° |
| 2026-04-13 00:37 | 29.20415 | -71.27916 | 1 ft | 0 kts | 355° |
| 2026-04-13 00:37 | 29.20416 | -71.27924 | 1 ft | 1 kts | 353° |
| 2026-04-13 00:38 | 29.20420 | -71.27934 | 1 ft | 1 kts | 353° |
| 2026-04-13 00:38 | 29.20426 | -71.27940 | 1 ft | 1 kts | 0° |
| 2026-04-13 00:38 | 29.20432 | -71.27945 | 1 ft | 0 kts | 9° |
| 2026-04-13 00:38 | 29.20437 | -71.27948 | 1 ft | 0 kts | 18° |
| 2026-04-13 00:39 | 29.20442 | -71.27949 | 1 ft | 0 kts | 25° |
| 2026-04-13 00:39 | 29.20447 | -71.27949 | 1 ft | 0 kts | 30° |
| 2026-04-13 00:39 | 29.20451 | -71.27949 | 1 ft | 1 kts | 33° |
| 2026-04-13 00:39 | 29.20455 | -71.27948 | 1 ft | 0 kts | 34° |
| 2026-04-13 00:40 | 29.20458 | -71.27947 | 1 ft | 1 kts | 35° |
| 2026-04-13 00:40 | 29.20461 | -71.27947 | 1 ft | 0 kts | 34° |
| 2026-04-13 00:40 | 29.20464 | -71.27947 | 1 ft | 0 kts | 32° |
| 2026-04-13 00:40 | 29.20467 | -71.27947 | 1 ft | 0 kts | 29° |
| 2026-04-13 00:41 | 29.20470 | -71.27947 | 1 ft | 0 kts | 26° |
| 2026-04-13 00:41 | 29.20472 | -71.27947 | 1 ft | 0 kts | 22° |
| 2026-04-13 00:41 | 29.20475 | -71.27948 | 1 ft | 1 kts | 19° |
| 2026-04-13 00:41 | 29.20477 | -71.27949 | 1 ft | 0 kts | 14° |
| 2026-04-13 00:42 | 29.20480 | -71.27952 | 1 ft | 0 kts | 10° |
| 2026-04-13 00:42 | 29.20482 | -71.27954 | 1 ft | 0 kts | 6° |
| 2026-04-13 00:42 | 29.20484 | -71.27958 | 1 ft | 0 kts | 2° |
| 2026-04-13 00:42 | 29.20486 | -71.27963 | 1 ft | 1 kts | 358° |
| 2026-04-13 00:43 | 29.20488 | -71.27970 | 1 ft | 1 kts | 355° |
| 2026-04-13 00:43 | 29.20493 | -71.27977 | 1 ft | 1 kts | 357° |
| 2026-04-13 00:43 | 29.20497 | -71.27982 | 1 ft | 1 kts | 2° |
| 2026-04-13 00:43 | 29.20502 | -71.27988 | 1 ft | 0 kts | 9° |
| 2026-04-13 00:44 | 29.20507 | -71.27991 | 1 ft | 1 kts | 17° |
| 2026-04-13 00:44 | 29.20516 | -71.27993 | 1 ft | 0 kts | 28° |
| 2026-04-13 00:44 | 29.20520 | -71.27993 | 1 ft | 0 kts | 32° |
| 2026-04-13 00:45 | 29.20524 | -71.27993 | 1 ft | 1 kts | 33° |
| 2026-04-13 00:45 | 29.20528 | -71.27992 | 1 ft | 0 kts | 33° |
| 2026-04-13 00:45 | 29.20531 | -71.27992 | 1 ft | 0 kts | 33° |
| 2026-04-13 00:45 | 29.20534 | -71.27992 | 1 ft | 0 kts | 31° |
| 2026-04-13 00:46 | 29.20537 | -71.27991 | 1 ft | 0 kts | 29° |
| 2026-04-13 00:46 | 29.20539 | -71.27992 | 1 ft | 0 kts | 26° |
| 2026-04-13 00:46 | 29.20542 | -71.27992 | 1 ft | 0 kts | 24° |
| 2026-04-13 00:46 | 29.20544 | -71.27992 | 1 ft | 0 kts | 20° |
| 2026-04-13 00:47 | 29.20547 | -71.27994 | 1 ft | 0 kts | 17° |
| 2026-04-13 00:47 | 29.20549 | -71.27996 | 1 ft | 0 kts | 12° |
| 2026-04-13 00:47 | 29.20551 | -71.28000 | 1 ft | 1 kts | 7° |
| 2026-04-13 00:47 | 29.20552 | -71.28007 | 1 ft | 1 kts | 358° |
| 2026-04-13 00:48 | 29.20552 | -71.28017 | 1 ft | 1 kts | 347° |
| 2026-04-13 00:48 | 29.20555 | -71.28028 | 1 ft | 1 kts | 337° |
| 2026-04-13 00:48 | 29.20560 | -71.28038 | 1 ft | 1 kts | 340° |
| 2026-04-13 00:48 | 29.20567 | -71.28047 | 1 ft | 1 kts | 351° |
| 2026-04-13 00:49 | 29.20573 | -71.28054 | 1 ft | 1 kts | 4° |
| 2026-04-13 00:49 | 29.20579 | -71.28057 | 1 ft | 0 kts | 16° |
| 2026-04-13 00:49 | 29.20585 | -71.28059 | 1 ft | 0 kts | 26° |
| 2026-04-13 00:49 | 29.20590 | -71.28059 | 1 ft | 1 kts | 33° |
| 2026-04-13 00:50 | 29.20594 | -71.28058 | 1 ft | 1 kts | 37° |
| 2026-04-13 00:50 | 29.20598 | -71.28057 | 1 ft | 0 kts | 39° |
| 2026-04-13 00:50 | 29.20602 | -71.28056 | 1 ft | 0 kts | 40° |
| 2026-04-13 00:50 | 29.20605 | -71.28055 | 1 ft | 0 kts | 39° |
| 2026-04-13 00:51 | 29.20608 | -71.28054 | 1 ft | 0 kts | 37° |
| 2026-04-13 00:51 | 29.20610 | -71.28053 | 1 ft | 0 kts | 35° |
| 2026-04-13 00:51 | 29.20613 | -71.28052 | 1 ft | 0 kts | 31° |
| 2026-04-13 00:51 | 29.20616 | -71.28052 | 1 ft | 0 kts | 27° |
| 2026-04-13 00:52 | 29.20618 | -71.28053 | 1 ft | 0 kts | 23° |
| 2026-04-13 00:52 | 29.20621 | -71.28054 | 1 ft | 0 kts | 19° |
| 2026-04-13 00:52 | 29.20623 | -71.28056 | 1 ft | 0 kts | 13° |
| 2026-04-13 00:52 | 29.20625 | -71.28059 | 1 ft | 0 kts | 7° |
| 2026-04-13 00:53 | 29.20627 | -71.28063 | 1 ft | 0 kts | 0° |
| 2026-04-13 00:53 | 29.20628 | -71.28070 | 1 ft | 1 kts | 352° |
| 2026-04-13 00:53 | 29.20631 | -71.28080 | 1 ft | 1 kts | 346° |
| 2026-04-13 00:53 | 29.20637 | -71.28089 | 1 ft | 1 kts | 351° |
| 2026-04-13 00:54 | 29.20644 | -71.28096 | 1 ft | 1 kts | 1° |
| 2026-04-13 00:54 | 29.20650 | -71.28101 | 1 ft | 0 kts | 12° |
| 2026-04-13 00:54 | 29.20655 | -71.28103 | 1 ft | 0 kts | 21° |
| 2026-04-13 00:54 | 29.20661 | -71.28104 | 1 ft | 1 kts | 28° |
| 2026-04-13 00:55 | 29.20665 | -71.28103 | 1 ft | 0 kts | 33° |
| 2026-04-13 00:55 | 29.20669 | -71.28102 | 1 ft | 0 kts | 36° |
| 2026-04-13 00:55 | 29.20673 | -71.28101 | 1 ft | 1 kts | 37° |
| 2026-04-13 00:55 | 29.20676 | -71.28101 | 1 ft | 0 kts | 36° |
| 2026-04-13 00:56 | 29.20679 | -71.28100 | 1 ft | 0 kts | 34° |
| 2026-04-13 00:56 | 29.20682 | -71.28099 | 1 ft | 0 kts | 32° |
| 2026-04-13 00:56 | 29.20685 | -71.28099 | 1 ft | 0 kts | 29° |
| 2026-04-13 00:56 | 29.20688 | -71.28099 | 1 ft | 0 kts | 26° |
| 2026-04-13 00:57 | 29.20690 | -71.28100 | 1 ft | 0 kts | 22° |
| 2026-04-13 00:57 | 29.20692 | -71.28101 | 1 ft | 0 kts | 18° |
| 2026-04-13 00:57 | 29.20695 | -71.28104 | 1 ft | 1 kts | 13° |
| 2026-04-13 00:57 | 29.20697 | -71.28108 | 1 ft | 0 kts | 7° |
| 2026-04-13 00:58 | 29.20698 | -71.28113 | 1 ft | 1 kts | 0° |
| 2026-04-13 00:58 | 29.20700 | -71.28121 | 1 ft | 1 kts | 352° |
| 2026-04-13 00:58 | 29.20705 | -71.28130 | 1 ft | 1 kts | 348° |
| 2026-04-13 00:58 | 29.20711 | -71.28139 | 1 ft | 1 kts | 354° |
| 2026-04-13 00:59 | 29.20717 | -71.28145 | 1 ft | 1 kts | 4° |
| 2026-04-13 00:59 | 29.20722 | -71.28149 | 1 ft | 1 kts | 14° |
| 2026-04-13 00:59 | 29.20728 | -71.28150 | 1 ft | 0 kts | 22° |
| 2026-04-13 00:59 | 29.20733 | -71.28151 | 1 ft | 0 kts | 27° |
| 2026-04-13 01:00 | 29.20737 | -71.28151 | 1 ft | 0 kts | 32° |
| 2026-04-13 01:00 | 29.20741 | -71.28151 | 1 ft | 0 kts | 34° |
| 2026-04-13 01:00 | 29.20745 | -71.28150 | 1 ft | 1 kts | 34° |
| 2026-04-13 01:00 | 29.20748 | -71.28150 | 1 ft | 0 kts | 34° |
| 2026-04-13 01:01 | 29.20751 | -71.28149 | 1 ft | 0 kts | 33° |
| 2026-04-13 01:01 | 29.20754 | -71.28149 | 1 ft | 0 kts | 30° |
| 2026-04-13 01:01 | 29.20757 | -71.28149 | 1 ft | 0 kts | 27° |
| 2026-04-13 01:01 | 29.20760 | -71.28149 | 1 ft | 0 kts | 24° |
| 2026-04-13 01:02 | 29.20763 | -71.28150 | 1 ft | 0 kts | 20° |
| 2026-04-13 01:02 | 29.20765 | -71.28152 | 1 ft | 0 kts | 16° |
| 2026-04-13 01:02 | 29.20768 | -71.28153 | 1 ft | 0 kts | 12° |
| 2026-04-13 01:02 | 29.20770 | -71.28157 | 1 ft | 0 kts | 7° |
| 2026-04-13 01:03 | 29.20771 | -71.28163 | 1 ft | 1 kts | 1° |
| 2026-04-13 01:03 | 29.20771 | -71.28172 | 1 ft | 1 kts | 355° |
| 2026-04-13 01:03 | 29.20769 | -71.28185 | 1 ft | 1 kts | 353° |
| 2026-04-13 01:03 | 29.20766 | -71.28200 | 1 ft | 1 kts | 353° |
| 2026-04-13 01:04 | 29.20764 | -71.28215 | 1 ft | 2 kts | 354° |
| 2026-04-13 01:04 | 29.20762 | -71.28230 | 1 ft | 2 kts | 356° |
| 2026-04-13 01:04 | 29.20761 | -71.28245 | 1 ft | 1 kts | 356° |
| 2026-04-13 01:04 | 29.20760 | -71.28260 | 1 ft | 1 kts | 358° |
| 2026-04-13 01:05 | 29.20758 | -71.28275 | 1 ft | 1 kts | 358° |
| 2026-04-13 01:05 | 29.20757 | -71.28291 | 1 ft | 1 kts | 359° |
| 2026-04-13 01:05 | 29.20756 | -71.28305 | 1 ft | 1 kts | 359° |
| 2026-04-13 01:05 | 29.20756 | -71.28320 | 1 ft | 1 kts | 0° |
| 2026-04-13 01:06 | 29.20755 | -71.28334 | 1 ft | 1 kts | 1° |
| 2026-04-13 01:06 | 29.20755 | -71.28348 | 1 ft | 1 kts | 1° |
| 2026-04-13 01:06 | 29.20755 | -71.28361 | 1 ft | 1 kts | 2° |
| 2026-04-13 01:06 | 29.20754 | -71.28375 | 1 ft | 1 kts | 2° |
| 2026-04-13 01:07 | 29.20754 | -71.28389 | 1 ft | 1 kts | 2° |
| 2026-04-13 01:07 | 29.20754 | -71.28403 | 1 ft | 1 kts | 3° |
| 2026-04-13 01:07 | 29.20754 | -71.28416 | 1 ft | 1 kts | 3° |
| 2026-04-13 01:07 | 29.20754 | -71.28428 | 1 ft | 1 kts | 3° |
| 2026-04-13 01:08 | 29.20754 | -71.28441 | 1 ft | 1 kts | 4° |
| 2026-04-13 01:08 | 29.20754 | -71.28454 | 1 ft | 1 kts | 4° |
| 2026-04-13 01:08 | 29.20755 | -71.28467 | 1 ft | 1 kts | 4° |
| 2026-04-13 01:08 | 29.20755 | -71.28479 | 1 ft | 1 kts | 4° |
| 2026-04-13 01:09 | 29.20755 | -71.28492 | 1 ft | 1 kts | 4° |
| 2026-04-13 01:09 | 29.20755 | -71.28504 | 1 ft | 1 kts | 4° |
| 2026-04-13 01:09 | 29.20755 | -71.28517 | 1 ft | 1 kts | 5° |
| 2026-04-13 01:09 | 29.20756 | -71.28529 | 1 ft | 1 kts | 5° |
| 2026-04-13 01:10 | 29.20756 | -71.28542 | 1 ft | 1 kts | 5° |
| 2026-04-13 01:10 | 29.20756 | -71.28555 | 1 ft | 1 kts | 5° |
| 2026-04-13 01:10 | 29.20757 | -71.28568 | 1 ft | 1 kts | 5° |
| 2026-04-13 01:10 | 29.20757 | -71.28581 | 1 ft | 1 kts | 5° |
| 2026-04-13 01:11 | 29.20758 | -71.28593 | 0 ft | 1 kts | 5° |
| 2026-04-13 01:11 | 29.20758 | -71.28606 | 1 ft | 1 kts | 5° |
| 2026-04-13 01:11 | 29.20758 | -71.28619 | 1 ft | 1 kts | 5° |
| 2026-04-13 01:11 | 29.20759 | -71.28632 | 1 ft | 1 kts | 5° |
| 2026-04-13 01:12 | 29.20759 | -71.28644 | 1 ft | 1 kts | 5° |
| 2026-04-13 01:12 | 29.20759 | -71.28656 | 1 ft | 1 kts | 5° |
| 2026-04-13 01:12 | 29.20760 | -71.28669 | 1 ft | 1 kts | 5° |
| 2026-04-13 01:12 | 29.20760 | -71.28681 | 0 ft | 1 kts | 5° |
| 2026-04-13 01:13 | 29.20760 | -71.28694 | 1 ft | 1 kts | 5° |
| 2026-04-13 01:13 | 29.20761 | -71.28706 | 1 ft | 1 kts | 5° |
| 2026-04-13 01:13 | 29.20761 | -71.28718 | 1 ft | 1 kts | 5° |
| 2026-04-13 01:13 | 29.20761 | -71.28731 | 1 ft | 1 kts | 5° |
| 2026-04-13 01:14 | 29.20762 | -71.28744 | 1 ft | 1 kts | 5° |
| 2026-04-13 01:14 | 29.20762 | -71.28756 | 1 ft | 1 kts | 5° |
| 2026-04-13 01:14 | 29.20762 | -71.28769 | 1 ft | 1 kts | 5° |
| 2026-04-13 01:14 | 29.20763 | -71.28780 | 1 ft | 1 kts | 5° |
| 2026-04-13 01:15 | 29.20763 | -71.28793 | 1 ft | 1 kts | 5° |
| 2026-04-13 01:15 | 29.20764 | -71.28804 | 1 ft | 1 kts | 5° |
| 2026-04-13 01:15 | 29.20764 | -71.28816 | 1 ft | 1 kts | 5° |
| 2026-04-13 01:15 | 29.20764 | -71.28828 | 1 ft | 1 kts | 5° |
| 2026-04-13 01:16 | 29.20765 | -71.28839 | 1 ft | 1 kts | 5° |
| 2026-04-13 01:16 | 29.20765 | -71.28851 | 0 ft | 1 kts | 5° |
| 2026-04-13 01:16 | 29.20765 | -71.28862 | 0 ft | 1 kts | 5° |
| 2026-04-13 01:16 | 29.20766 | -71.28874 | 1 ft | 1 kts | 5° |
| 2026-04-13 01:17 | 29.20766 | -71.28887 | 0 ft | 1 kts | 5° |
| 2026-04-13 01:17 | 29.20766 | -71.28899 | 1 ft | 1 kts | 6° |
| 2026-04-13 01:17 | 29.20767 | -71.28912 | 1 ft | 1 kts | 5° |
| 2026-04-13 01:17 | 29.20767 | -71.28924 | 1 ft | 1 kts | 5° |
| 2026-04-13 01:18 | 29.20768 | -71.28936 | 1 ft | 1 kts | 5° |
| 2026-04-13 01:18 | 29.20768 | -71.28949 | 0 ft | 1 kts | 6° |
| 2026-04-13 01:18 | 29.20769 | -71.28962 | 1 ft | 1 kts | 6° |
| 2026-04-13 01:18 | 29.20769 | -71.28974 | 1 ft | 1 kts | 6° |
| 2026-04-13 01:19 | 29.20770 | -71.28986 | 0 ft | 1 kts | 6° |
| 2026-04-13 01:19 | 29.20771 | -71.28998 | 1 ft | 1 kts | 6° |
| 2026-04-13 01:19 | 29.20771 | -71.29009 | 0 ft | 1 kts | 5° |
| 2026-04-13 01:19 | 29.20771 | -71.29021 | 0 ft | 1 kts | 6° |
| 2026-04-13 01:20 | 29.20772 | -71.29033 | 1 ft | 1 kts | 6° |
| 2026-04-13 01:20 | 29.20772 | -71.29044 | 1 ft | 1 kts | 6° |
| 2026-04-13 01:20 | 29.20772 | -71.29057 | 1 ft | 1 kts | 6° |
| 2026-04-13 01:20 | 29.20773 | -71.29069 | 1 ft | 1 kts | 6° |
| 2026-04-13 01:21 | 29.20773 | -71.29082 | 0 ft | 1 kts | 6° |
| 2026-04-13 01:21 | 29.20774 | -71.29093 | 0 ft | 1 kts | 6° |
| 2026-04-13 01:21 | 29.20774 | -71.29105 | 1 ft | 1 kts | 6° |
| 2026-04-13 01:21 | 29.20775 | -71.29117 | 1 ft | 1 kts | 6° |
| 2026-04-13 01:22 | 29.20776 | -71.29129 | 0 ft | 1 kts | 6° |
| 2026-04-13 01:22 | 29.20776 | -71.29141 | 0 ft | 1 kts | 6° |
| 2026-04-13 01:22 | 29.20777 | -71.29153 | 1 ft | 1 kts | 6° |
| 2026-04-13 01:22 | 29.20778 | -71.29165 | 1 ft | 1 kts | 6° |
| 2026-04-13 01:23 | 29.20778 | -71.29177 | 0 ft | 1 kts | 6° |
| 2026-04-13 01:23 | 29.20779 | -71.29189 | 0 ft | 1 kts | 6° |
| 2026-04-13 01:23 | 29.20779 | -71.29202 | 0 ft | 1 kts | 6° |
| 2026-04-13 01:23 | 29.20780 | -71.29213 | 0 ft | 1 kts | 6° |
| 2026-04-13 01:24 | 29.20780 | -71.29224 | 0 ft | 1 kts | 6° |
| 2026-04-13 01:24 | 29.20781 | -71.29236 | 1 ft | 1 kts | 6° |
| 2026-04-13 01:24 | 29.20781 | -71.29248 | 0 ft | 1 kts | 6° |
| 2026-04-13 01:24 | 29.20782 | -71.29260 | 0 ft | 1 kts | 6° |
| 2026-04-13 01:25 | 29.20782 | -71.29272 | 1 ft | 1 kts | 6° |
| 2026-04-13 01:25 | 29.20783 | -71.29284 | 0 ft | 1 kts | 6° |
| 2026-04-13 01:25 | 29.20783 | -71.29296 | 0 ft | 1 kts | 6° |
| 2026-04-13 01:25 | 29.20784 | -71.29308 | 1 ft | 1 kts | 6° |
| 2026-04-13 01:26 | 29.20784 | -71.29321 | 1 ft | 1 kts | 6° |
| 2026-04-13 01:26 | 29.20785 | -71.29333 | 1 ft | 1 kts | 6° |
| 2026-04-13 01:26 | 29.20785 | -71.29346 | 0 ft | 1 kts | 6° |
| 2026-04-13 01:26 | 29.20786 | -71.29358 | 0 ft | 1 kts | 6° |
| 2026-04-13 01:27 | 29.20787 | -71.29369 | 1 ft | 1 kts | 6° |
| 2026-04-13 01:27 | 29.20787 | -71.29381 | 0 ft | 1 kts | 7° |
| 2026-04-13 01:27 | 29.20788 | -71.29392 | 0 ft | 1 kts | 6° |
| 2026-04-13 01:27 | 29.20788 | -71.29404 | 0 ft | 1 kts | 7° |
| 2026-04-13 01:28 | 29.20789 | -71.29416 | 0 ft | 1 kts | 7° |
| 2026-04-13 01:28 | 29.20790 | -71.29428 | 1 ft | 1 kts | 6° |
| 2026-04-13 01:28 | 29.20790 | -71.29440 | 0 ft | 1 kts | 6° |
| 2026-04-13 01:28 | 29.20791 | -71.29452 | 0 ft | 1 kts | 6° |
| 2026-04-13 01:29 | 29.20791 | -71.29464 | 0 ft | 1 kts | 6° |
| 2026-04-13 01:29 | 29.20792 | -71.29475 | 0 ft | 1 kts | 6° |
| 2026-04-13 01:29 | 29.20793 | -71.29488 | 0 ft | 1 kts | 6° |
| 2026-04-13 01:29 | 29.20793 | -71.29501 | 1 ft | 1 kts | 7° |
| 2026-04-13 01:30 | 29.20794 | -71.29513 | 0 ft | 1 kts | 7° |
| 2026-04-13 01:30 | 29.20794 | -71.29526 | 0 ft | 1 kts | 6° |
| 2026-04-13 01:30 | 29.20795 | -71.29538 | 0 ft | 1 kts | 6° |
| 2026-04-13 01:30 | 29.20796 | -71.29549 | 0 ft | 1 kts | 6° |
| 2026-04-13 01:31 | 29.20796 | -71.29561 | 1 ft | 1 kts | 6° |
| 2026-04-13 01:31 | 29.20797 | -71.29572 | 0 ft | 1 kts | 6° |
| 2026-04-13 01:31 | 29.20797 | -71.29584 | 0 ft | 1 kts | 6° |
| 2026-04-13 01:31 | 29.20798 | -71.29596 | 0 ft | 1 kts | 5° |
| 2026-04-13 01:32 | 29.20798 | -71.29607 | 0 ft | 1 kts | 5° |
| 2026-04-13 01:32 | 29.20798 | -71.29620 | 0 ft | 1 kts | 5° |
| 2026-04-13 01:32 | 29.20799 | -71.29633 | 0 ft | 1 kts | 6° |
| 2026-04-13 01:32 | 29.20799 | -71.29645 | 0 ft | 1 kts | 6° |
| 2026-04-13 01:33 | 29.20800 | -71.29656 | 0 ft | 1 kts | 6° |
| 2026-04-13 01:33 | 29.20801 | -71.29668 | 0 ft | 1 kts | 6° |
| 2026-04-13 01:33 | 29.20801 | -71.29681 | 1 ft | 1 kts | 7° |
| 2026-04-13 01:33 | 29.20802 | -71.29693 | 0 ft | 1 kts | 7° |
| 2026-04-13 01:34 | 29.20802 | -71.29704 | 0 ft | 1 kts | 7° |
| 2026-04-13 01:34 | 29.20803 | -71.29716 | 0 ft | 1 kts | 7° |
| 2026-04-13 01:34 | 29.20804 | -71.29728 | 1 ft | 1 kts | 7° |
| 2026-04-13 01:34 | 29.20804 | -71.29739 | 1 ft | 1 kts | 7° |
| 2026-04-13 01:35 | 29.20805 | -71.29752 | 0 ft | 1 kts | 7° |
| 2026-04-13 01:35 | 29.20805 | -71.29764 | 0 ft | 1 kts | 7° |
| 2026-04-13 01:35 | 29.20806 | -71.29777 | 0 ft | 1 kts | 7° |
| 2026-04-13 01:35 | 29.20807 | -71.29789 | 0 ft | 1 kts | 6° |
| 2026-04-13 01:36 | 29.20808 | -71.29800 | 1 ft | 1 kts | 6° |
| 2026-04-13 01:36 | 29.20808 | -71.29812 | 0 ft | 1 kts | 6° |
| 2026-04-13 01:36 | 29.20808 | -71.29823 | 0 ft | 1 kts | 6° |
| 2026-04-13 01:36 | 29.20809 | -71.29836 | 0 ft | 1 kts | 6° |
| 2026-04-13 01:37 | 29.20809 | -71.29848 | 0 ft | 1 kts | 6° |
| 2026-04-13 01:37 | 29.20810 | -71.29860 | 0 ft | 1 kts | 6° |
| 2026-04-13 01:37 | 29.20810 | -71.29871 | 1 ft | 1 kts | 6° |
| 2026-04-13 01:37 | 29.20810 | -71.29884 | 0 ft | 1 kts | 6° |
| 2026-04-13 01:38 | 29.20811 | -71.29896 | 0 ft | 1 kts | 6° |
| 2026-04-13 01:38 | 29.20811 | -71.29909 | 0 ft | 1 kts | 6° |
| 2026-04-13 01:38 | 29.20812 | -71.29922 | 0 ft | 1 kts | 6° |
| 2026-04-13 01:38 | 29.20812 | -71.29935 | 0 ft | 1 kts | 6° |
| 2026-04-13 01:39 | 29.20813 | -71.29948 | 0 ft | 1 kts | 6° |
| 2026-04-13 01:39 | 29.20814 | -71.29961 | 1 ft | 1 kts | 6° |
| 2026-04-13 01:39 | 29.20814 | -71.29974 | 1 ft | 1 kts | 6° |
| 2026-04-13 01:39 | 29.20815 | -71.29986 | 1 ft | 1 kts | 6° |
| 2026-04-13 01:40 | 29.20816 | -71.29998 | 1 ft | 1 kts | 6° |
| 2026-04-13 01:40 | 29.20816 | -71.30010 | 0 ft | 1 kts | 6° |
| 2026-04-13 01:40 | 29.20817 | -71.30022 | 0 ft | 1 kts | 7° |
| 2026-04-13 01:40 | 29.20817 | -71.30034 | 0 ft | 1 kts | 7° |
| 2026-04-13 01:41 | 29.20818 | -71.30046 | 0 ft | 1 kts | 6° |
| 2026-04-13 01:41 | 29.20819 | -71.30058 | 1 ft | 1 kts | 6° |
| 2026-04-13 01:41 | 29.20819 | -71.30070 | 0 ft | 1 kts | 7° |
| 2026-04-13 01:41 | 29.20820 | -71.30082 | 0 ft | 1 kts | 7° |
| 2026-04-13 01:42 | 29.20820 | -71.30095 | 0 ft | 1 kts | 7° |
| 2026-04-13 01:42 | 29.20821 | -71.30108 | 0 ft | 1 kts | 7° |
| 2026-04-13 01:42 | 29.20822 | -71.30120 | 1 ft | 1 kts | 7° |
| 2026-04-13 01:43 | 29.20824 | -71.30154 | 0 ft | 1 kts | 7° |
| 2026-04-13 01:43 | 29.20825 | -71.30166 | 0 ft | 1 kts | 7° |
| 2026-04-13 01:43 | 29.20826 | -71.30178 | 0 ft | 1 kts | 7° |
| 2026-04-13 01:44 | 29.20826 | -71.30189 | 1 ft | 1 kts | 7° |
| 2026-04-13 01:44 | 29.20827 | -71.30200 | 1 ft | 1 kts | 7° |
| 2026-04-13 01:44 | 29.20828 | -71.30212 | 1 ft | 1 kts | 7° |
| 2026-04-13 01:44 | 29.20828 | -71.30225 | 0 ft | 1 kts | 7° |
| 2026-04-13 01:45 | 29.20829 | -71.30237 | 0 ft | 1 kts | 7° |
| 2026-04-13 01:45 | 29.20829 | -71.30249 | 1 ft | 1 kts | 7° |
| 2026-04-13 01:45 | 29.20830 | -71.30261 | 1 ft | 1 kts | 7° |
| 2026-04-13 01:45 | 29.20831 | -71.30273 | 0 ft | 1 kts | 7° |
| 2026-04-13 01:46 | 29.20831 | -71.30284 | 0 ft | 1 kts | 6° |
| 2026-04-13 01:46 | 29.20832 | -71.30296 | 0 ft | 1 kts | 6° |
| 2026-04-13 01:46 | 29.20833 | -71.30307 | 1 ft | 1 kts | 6° |
| 2026-04-13 01:46 | 29.20833 | -71.30319 | 0 ft | 1 kts | 6° |
| 2026-04-13 01:47 | 29.20834 | -71.30331 | 0 ft | 1 kts | 6° |
| 2026-04-13 01:47 | 29.20834 | -71.30344 | 0 ft | 1 kts | 6° |
| 2026-04-13 01:47 | 29.20835 | -71.30357 | 0 ft | 1 kts | 7° |
| 2026-04-13 01:47 | 29.20836 | -71.30370 | 0 ft | 1 kts | 7° |
| 2026-04-13 01:48 | 29.20836 | -71.30383 | 1 ft | 1 kts | 7° |
| 2026-04-13 01:48 | 29.20837 | -71.30395 | 0 ft | 1 kts | 7° |
| 2026-04-13 01:48 | 29.20838 | -71.30406 | 1 ft | 1 kts | 7° |
| 2026-04-13 01:48 | 29.20838 | -71.30418 | 1 ft | 1 kts | 7° |
| 2026-04-13 01:49 | 29.20839 | -71.30431 | 1 ft | 1 kts | 7° |
| 2026-04-13 01:49 | 29.20840 | -71.30443 | 0 ft | 1 kts | 7° |
| 2026-04-13 01:49 | 29.20841 | -71.30455 | 1 ft | 1 kts | 7° |
| 2026-04-13 01:49 | 29.20842 | -71.30467 | 0 ft | 1 kts | 7° |
| 2026-04-13 01:50 | 29.20842 | -71.30479 | 1 ft | 1 kts | 7° |
| 2026-04-13 01:50 | 29.20843 | -71.30490 | 1 ft | 1 kts | 6° |
| 2026-04-13 01:50 | 29.20843 | -71.30502 | 1 ft | 1 kts | 6° |
| 2026-04-13 01:50 | 29.20844 | -71.30514 | 0 ft | 1 kts | 6° |
| 2026-04-13 01:51 | 29.20845 | -71.30527 | 1 ft | 1 kts | 6° |
| 2026-04-13 01:51 | 29.20845 | -71.30538 | 0 ft | 1 kts | 6° |
| 2026-04-13 01:51 | 29.20846 | -71.30550 | 1 ft | 1 kts | 6° |
| 2026-04-13 01:51 | 29.20846 | -71.30563 | 1 ft | 1 kts | 6° |
| 2026-04-13 01:52 | 29.20847 | -71.30575 | 1 ft | 1 kts | 7° |
| 2026-04-13 01:52 | 29.20847 | -71.30587 | 1 ft | 1 kts | 7° |
| 2026-04-13 01:52 | 29.20848 | -71.30600 | 1 ft | 1 kts | 7° |
| 2026-04-13 01:52 | 29.20849 | -71.30612 | 0 ft | 1 kts | 7° |
| 2026-04-13 01:53 | 29.20849 | -71.30624 | 1 ft | 1 kts | 7° |
| 2026-04-13 01:53 | 29.20850 | -71.30637 | 1 ft | 1 kts | 7° |
| 2026-04-13 01:53 | 29.20851 | -71.30650 | 1 ft | 1 kts | 7° |
| 2026-04-13 01:53 | 29.20851 | -71.30662 | 1 ft | 1 kts | 7° |
| 2026-04-13 01:54 | 29.20852 | -71.30674 | 0 ft | 1 kts | 7° |
| 2026-04-13 01:54 | 29.20853 | -71.30685 | 1 ft | 1 kts | 6° |
| 2026-04-13 01:54 | 29.20853 | -71.30697 | 1 ft | 1 kts | 7° |
| 2026-04-13 01:54 | 29.20854 | -71.30708 | 1 ft | 1 kts | 7° |
| 2026-04-13 01:55 | 29.20855 | -71.30720 | 1 ft | 1 kts | 7° |
| 2026-04-13 01:55 | 29.20855 | -71.30733 | 1 ft | 1 kts | 7° |
| 2026-04-13 01:55 | 29.20856 | -71.30744 | 1 ft | 1 kts | 7° |
| 2026-04-13 01:55 | 29.20857 | -71.30756 | 1 ft | 1 kts | 7° |
| 2026-04-13 01:56 | 29.20857 | -71.30769 | 1 ft | 1 kts | 7° |
| 2026-04-13 01:56 | 29.20858 | -71.30781 | 1 ft | 1 kts | 7° |
| 2026-04-13 01:56 | 29.20858 | -71.30793 | 1 ft | 1 kts | 7° |
| 2026-04-13 01:56 | 29.20859 | -71.30804 | 1 ft | 1 kts | 6° |
| 2026-04-13 01:57 | 29.20860 | -71.30817 | 0 ft | 1 kts | 6° |
| 2026-04-13 01:57 | 29.20860 | -71.30828 | 1 ft | 1 kts | 6° |
| 2026-04-13 01:57 | 29.20861 | -71.30840 | 1 ft | 1 kts | 6° |
| 2026-04-13 01:57 | 29.20861 | -71.30851 | 1 ft | 1 kts | 6° |
| 2026-04-13 01:58 | 29.20862 | -71.30863 | 1 ft | 1 kts | 7° |
| 2026-04-13 01:58 | 29.20863 | -71.30876 | 1 ft | 1 kts | 7° |
| 2026-04-13 01:58 | 29.20863 | -71.30888 | 1 ft | 1 kts | 7° |
| 2026-04-13 01:58 | 29.20864 | -71.30901 | 1 ft | 1 kts | 7° |
| 2026-04-13 01:59 | 29.20865 | -71.30913 | 1 ft | 1 kts | 7° |
| 2026-04-13 01:59 | 29.20866 | -71.30925 | 1 ft | 1 kts | 7° |
| 2026-04-13 01:59 | 29.20867 | -71.30936 | 1 ft | 1 kts | 7° |
| 2026-04-13 01:59 | 29.20867 | -71.30948 | 1 ft | 1 kts | 7° |
| 2026-04-13 02:00 | 29.20868 | -71.30960 | 1 ft | 1 kts | 7° |
| 2026-04-13 02:00 | 29.20868 | -71.30972 | 1 ft | 1 kts | 7° |
| 2026-04-13 02:00 | 29.20869 | -71.30985 | 1 ft | 1 kts | 7° |
| 2026-04-13 02:00 | 29.20870 | -71.30997 | 1 ft | 1 kts | 7° |
| 2026-04-13 02:01 | 29.20871 | -71.31008 | 1 ft | 1 kts | 7° |
| 2026-04-13 02:01 | 29.20872 | -71.31020 | 1 ft | 1 kts | 7° |
| 2026-04-13 02:01 | 29.20872 | -71.31032 | 1 ft | 1 kts | 7° |
| 2026-04-13 02:01 | 29.20873 | -71.31043 | 1 ft | 1 kts | 7° |
| 2026-04-13 02:02 | 29.20874 | -71.31055 | 1 ft | 1 kts | 7° |
| 2026-04-13 02:02 | 29.20874 | -71.31068 | 1 ft | 1 kts | 7° |
| 2026-04-13 02:02 | 29.20875 | -71.31079 | 1 ft | 1 kts | 7° |
| 2026-04-13 02:02 | 29.20876 | -71.31091 | 1 ft | 1 kts | 7° |
| 2026-04-13 02:03 | 29.20877 | -71.31102 | 1 ft | 1 kts | 7° |
| 2026-04-13 02:03 | 29.20877 | -71.31114 | 1 ft | 1 kts | 7° |
| 2026-04-13 02:03 | 29.20878 | -71.31126 | 1 ft | 1 kts | 7° |
| 2026-04-13 02:03 | 29.20879 | -71.31138 | 1 ft | 1 kts | 7° |
| 2026-04-13 02:04 | 29.20879 | -71.31149 | 1 ft | 1 kts | 7° |
| 2026-04-13 02:04 | 29.20880 | -71.31162 | 1 ft | 1 kts | 7° |
| 2026-04-13 02:04 | 29.20881 | -71.31174 | 1 ft | 1 kts | 7° |
| 2026-04-13 02:04 | 29.20882 | -71.31186 | 1 ft | 1 kts | 7° |
| 2026-04-13 02:05 | 29.20882 | -71.31199 | 1 ft | 1 kts | 8° |
| 2026-04-13 02:05 | 29.20883 | -71.31212 | 1 ft | 1 kts | 8° |
| 2026-04-13 02:05 | 29.20884 | -71.31224 | 1 ft | 1 kts | 7° |
| 2026-04-13 02:05 | 29.20885 | -71.31235 | 1 ft | 1 kts | 7° |
| 2026-04-13 02:06 | 29.20886 | -71.31248 | 1 ft | 1 kts | 7° |
| 2026-04-13 02:06 | 29.20886 | -71.31260 | 1 ft | 1 kts | 7° |
| 2026-04-13 02:06 | 29.20887 | -71.31272 | 1 ft | 1 kts | 7° |
| 2026-04-13 02:06 | 29.20888 | -71.31284 | 1 ft | 1 kts | 8° |
| 2026-04-13 02:07 | 29.20889 | -71.31297 | 1 ft | 1 kts | 8° |
| 2026-04-13 02:07 | 29.20890 | -71.31310 | 1 ft | 1 kts | 8° |
| 2026-04-13 02:07 | 29.20891 | -71.31322 | 1 ft | 1 kts | 8° |
| 2026-04-13 02:07 | 29.20892 | -71.31334 | 1 ft | 1 kts | 8° |
| 2026-04-13 02:08 | 29.20893 | -71.31347 | 1 ft | 1 kts | 8° |
| 2026-04-13 02:08 | 29.20894 | -71.31360 | 1 ft | 1 kts | 8° |
| 2026-04-13 02:08 | 29.20895 | -71.31372 | 1 ft | 1 kts | 8° |
| 2026-04-13 02:08 | 29.20896 | -71.31383 | 1 ft | 1 kts | 8° |
| 2026-04-13 02:09 | 29.20896 | -71.31394 | 1 ft | 1 kts | 7° |
| 2026-04-13 02:09 | 29.20897 | -71.31406 | 1 ft | 1 kts | 8° |
| 2026-04-13 02:09 | 29.20898 | -71.31416 | 1 ft | 1 kts | 8° |
| 2026-04-13 02:09 | 29.20899 | -71.31428 | 1 ft | 1 kts | 8° |
| 2026-04-13 02:10 | 29.20899 | -71.31439 | 1 ft | 1 kts | 8° |
| 2026-04-13 02:10 | 29.20900 | -71.31451 | 1 ft | 1 kts | 8° |
| 2026-04-13 02:10 | 29.20901 | -71.31463 | 1 ft | 1 kts | 8° |
| 2026-04-13 02:10 | 29.20902 | -71.31475 | 1 ft | 1 kts | 8° |
| 2026-04-13 02:11 | 29.20903 | -71.31487 | 1 ft | 1 kts | 8° |
| 2026-04-13 02:11 | 29.20904 | -71.31500 | 1 ft | 1 kts | 8° |
| 2026-04-13 02:11 | 29.20905 | -71.31513 | 1 ft | 1 kts | 9° |
| 2026-04-13 02:11 | 29.20906 | -71.31525 | 1 ft | 1 kts | 8° |
| 2026-04-13 02:12 | 29.20907 | -71.31537 | 1 ft | 1 kts | 8° |
| 2026-04-13 02:12 | 29.20908 | -71.31548 | 1 ft | 1 kts | 8° |
| 2026-04-13 02:12 | 29.20909 | -71.31559 | 1 ft | 1 kts | 8° |
| 2026-04-13 02:12 | 29.20910 | -71.31570 | 1 ft | 1 kts | 8° |
| 2026-04-13 02:13 | 29.20911 | -71.31582 | 1 ft | 1 kts | 8° |
| 2026-04-13 02:13 | 29.20911 | -71.31593 | 1 ft | 1 kts | 8° |
| 2026-04-13 02:13 | 29.20912 | -71.31605 | 1 ft | 1 kts | 8° |
| 2026-04-13 02:13 | 29.20913 | -71.31617 | 1 ft | 1 kts | 8° |
| 2026-04-13 02:14 | 29.20914 | -71.31629 | 1 ft | 1 kts | 8° |
| 2026-04-13 02:14 | 29.20915 | -71.31641 | 1 ft | 1 kts | 8° |
| 2026-04-13 02:14 | 29.20916 | -71.31654 | 1 ft | 1 kts | 8° |
| 2026-04-13 02:14 | 29.20917 | -71.31666 | 1 ft | 1 kts | 8° |
| 2026-04-13 02:15 | 29.20918 | -71.31677 | 1 ft | 1 kts | 8° |
| 2026-04-13 02:15 | 29.20919 | -71.31690 | 1 ft | 1 kts | 8° |
| 2026-04-13 02:15 | 29.20919 | -71.31701 | 1 ft | 1 kts | 8° |
| 2026-04-13 02:15 | 29.20920 | -71.31712 | 1 ft | 1 kts | 8° |
| 2026-04-13 02:16 | 29.20921 | -71.31724 | 0 ft | 1 kts | 7° |
| 2026-04-13 02:16 | 29.20922 | -71.31737 | 1 ft | 1 kts | 7° |
| 2026-04-13 02:16 | 29.20922 | -71.31750 | 1 ft | 1 kts | 8° |
| 2026-04-13 02:16 | 29.20923 | -71.31763 | 1 ft | 1 kts | 8° |
| 2026-04-13 02:17 | 29.20925 | -71.31776 | 1 ft | 1 kts | 8° |
| 2026-04-13 02:17 | 29.20926 | -71.31789 | 1 ft | 1 kts | 8° |
| 2026-04-13 02:17 | 29.20927 | -71.31802 | 1 ft | 1 kts | 8° |
| 2026-04-13 02:17 | 29.20928 | -71.31814 | 1 ft | 1 kts | 8° |
| 2026-04-13 02:18 | 29.20929 | -71.31827 | 1 ft | 1 kts | 8° |
| 2026-04-13 02:18 | 29.20930 | -71.31839 | 1 ft | 1 kts | 8° |
| 2026-04-13 02:18 | 29.20931 | -71.31851 | 1 ft | 1 kts | 8° |
| 2026-04-13 02:18 | 29.20932 | -71.31863 | 1 ft | 1 kts | 8° |
| 2026-04-13 02:19 | 29.20933 | -71.31876 | 0 ft | 1 kts | 8° |
| 2026-04-13 02:19 | 29.20934 | -71.31888 | 1 ft | 1 kts | 8° |
| 2026-04-13 02:19 | 29.20935 | -71.31900 | 0 ft | 1 kts | 9° |
| 2026-04-13 02:19 | 29.20936 | -71.31912 | 0 ft | 1 kts | 9° |
| 2026-04-13 02:20 | 29.20937 | -71.31925 | 1 ft | 1 kts | 9° |
| 2026-04-13 02:20 | 29.20938 | -71.31937 | 0 ft | 1 kts | 9° |
| 2026-04-13 02:20 | 29.20939 | -71.31949 | 0 ft | 1 kts | 8° |
| 2026-04-13 02:20 | 29.20940 | -71.31960 | 1 ft | 1 kts | 8° |
| 2026-04-13 02:21 | 29.20941 | -71.31971 | 0 ft | 1 kts | 8° |
| 2026-04-13 02:21 | 29.20942 | -71.31982 | 1 ft | 1 kts | 8° |
| 2026-04-13 02:21 | 29.20942 | -71.31995 | 0 ft | 1 kts | 8° |
| 2026-04-13 02:21 | 29.20943 | -71.32006 | 1 ft | 1 kts | 8° |
| 2026-04-13 02:22 | 29.20944 | -71.32018 | 1 ft | 1 kts | 9° |
| 2026-04-13 02:22 | 29.20945 | -71.32031 | 0 ft | 1 kts | 9° |
| 2026-04-13 02:22 | 29.20947 | -71.32043 | 0 ft | 1 kts | 8° |
| 2026-04-13 02:22 | 29.20948 | -71.32056 | 0 ft | 1 kts | 9° |
| 2026-04-13 02:23 | 29.20949 | -71.32068 | 1 ft | 1 kts | 9° |
| 2026-04-13 02:23 | 29.20950 | -71.32079 | 0 ft | 1 kts | 9° |
| 2026-04-13 02:23 | 29.20951 | -71.32091 | 0 ft | 1 kts | 9° |
| 2026-04-13 02:23 | 29.20952 | -71.32102 | 1 ft | 1 kts | 9° |
| 2026-04-13 02:24 | 29.20953 | -71.32113 | 0 ft | 1 kts | 8° |
| 2026-04-13 02:24 | 29.20954 | -71.32124 | 1 ft | 1 kts | 8° |
| 2026-04-13 02:24 | 29.20954 | -71.32136 | 0 ft | 1 kts | 8° |
| 2026-04-13 02:24 | 29.20955 | -71.32148 | 1 ft | 1 kts | 8° |
| 2026-04-13 02:25 | 29.20956 | -71.32160 | 1 ft | 1 kts | 8° |
| 2026-04-13 02:25 | 29.20957 | -71.32172 | 1 ft | 1 kts | 8° |
| 2026-04-13 02:25 | 29.20958 | -71.32185 | 0 ft | 1 kts | 8° |
| 2026-04-13 02:25 | 29.20959 | -71.32198 | 1 ft | 1 kts | 8° |
| 2026-04-13 02:26 | 29.20960 | -71.32210 | 1 ft | 1 kts | 8° |
| 2026-04-13 02:26 | 29.20961 | -71.32223 | 0 ft | 1 kts | 8° |
| 2026-04-13 02:26 | 29.20962 | -71.32237 | 0 ft | 1 kts | 8° |
| 2026-04-13 02:26 | 29.20963 | -71.32249 | 0 ft | 1 kts | 8° |
| 2026-04-13 02:27 | 29.20964 | -71.32261 | 0 ft | 1 kts | 9° |
| 2026-04-13 02:27 | 29.20965 | -71.32273 | 1 ft | 1 kts | 9° |
| 2026-04-13 02:27 | 29.20966 | -71.32285 | 0 ft | 1 kts | 8° |
| 2026-04-13 02:27 | 29.20967 | -71.32297 | 1 ft | 1 kts | 8° |
| 2026-04-13 02:28 | 29.20968 | -71.32308 | 1 ft | 1 kts | 8° |
| 2026-04-13 02:28 | 29.20969 | -71.32321 | 1 ft | 1 kts | 8° |
| 2026-04-13 02:28 | 29.20970 | -71.32334 | 1 ft | 1 kts | 9° |
| 2026-04-13 02:28 | 29.20971 | -71.32347 | 1 ft | 1 kts | 9° |
| 2026-04-13 02:29 | 29.20972 | -71.32360 | 1 ft | 1 kts | 9° |
| 2026-04-13 02:29 | 29.20973 | -71.32372 | 0 ft | 1 kts | 9° |
| 2026-04-13 02:29 | 29.20975 | -71.32384 | 1 ft | 1 kts | 9° |
| 2026-04-13 02:29 | 29.20976 | -71.32396 | 0 ft | 1 kts | 9° |
| 2026-04-13 02:30 | 29.20977 | -71.32408 | 1 ft | 1 kts | 9° |
| 2026-04-13 02:30 | 29.20978 | -71.32420 | 0 ft | 1 kts | 9° |
| 2026-04-13 02:30 | 29.20979 | -71.32432 | 1 ft | 1 kts | 9° |
| 2026-04-13 02:30 | 29.20980 | -71.32443 | 0 ft | 1 kts | 9° |
| 2026-04-13 02:31 | 29.20981 | -71.32456 | 0 ft | 1 kts | 9° |
| 2026-04-13 02:31 | 29.20982 | -71.32468 | 0 ft | 1 kts | 8° |
| 2026-04-13 02:31 | 29.20983 | -71.32481 | 1 ft | 1 kts | 8° |
| 2026-04-13 02:31 | 29.20984 | -71.32494 | 0 ft | 1 kts | 9° |
| 2026-04-13 02:32 | 29.20985 | -71.32507 | 0 ft | 1 kts | 9° |
| 2026-04-13 02:32 | 29.20986 | -71.32519 | 1 ft | 1 kts | 9° |
| 2026-04-13 02:32 | 29.20987 | -71.32530 | 0 ft | 1 kts | 9° |
| 2026-04-13 02:32 | 29.20988 | -71.32542 | 0 ft | 1 kts | 9° |
| 2026-04-13 02:33 | 29.20989 | -71.32553 | 0 ft | 1 kts | 9° |
| 2026-04-13 02:33 | 29.20990 | -71.32564 | 0 ft | 1 kts | 8° |
| 2026-04-13 02:33 | 29.20991 | -71.32576 | 0 ft | 1 kts | 8° |
| 2026-04-13 02:33 | 29.20992 | -71.32587 | 0 ft | 1 kts | 8° |
| 2026-04-13 02:34 | 29.20993 | -71.32599 | 0 ft | 1 kts | 8° |
| 2026-04-13 02:34 | 29.20994 | -71.32610 | 1 ft | 1 kts | 8° |
| 2026-04-13 02:34 | 29.20995 | -71.32622 | 1 ft | 1 kts | 8° |
| 2026-04-13 02:34 | 29.20996 | -71.32633 | 0 ft | 1 kts | 8° |
| 2026-04-13 02:35 | 29.20997 | -71.32645 | 0 ft | 1 kts | 8° |
| 2026-04-13 02:35 | 29.20997 | -71.32656 | 0 ft | 1 kts | 8° |
| 2026-04-13 02:35 | 29.20998 | -71.32667 | 0 ft | 1 kts | 8° |
| 2026-04-13 02:35 | 29.20999 | -71.32680 | 0 ft | 1 kts | 8° |
| 2026-04-13 02:36 | 29.21000 | -71.32691 | 0 ft | 1 kts | 8° |
| 2026-04-13 02:36 | 29.21001 | -71.32703 | 0 ft | 1 kts | 8° |
| 2026-04-13 02:36 | 29.21002 | -71.32715 | 1 ft | 1 kts | 7° |
| 2026-04-13 02:36 | 29.21002 | -71.32727 | 0 ft | 1 kts | 7° |
| 2026-04-13 02:37 | 29.21003 | -71.32739 | 1 ft | 1 kts | 7° |
| 2026-04-13 02:37 | 29.21004 | -71.32752 | 0 ft | 1 kts | 7° |
| 2026-04-13 02:37 | 29.21005 | -71.32764 | 0 ft | 1 kts | 7° |
| 2026-04-13 02:37 | 29.21005 | -71.32777 | 0 ft | 1 kts | 8° |
| 2026-04-13 02:38 | 29.21007 | -71.32790 | 0 ft | 1 kts | 9° |
| 2026-04-13 02:38 | 29.21008 | -71.32803 | 0 ft | 1 kts | 9° |
| 2026-04-13 02:38 | 29.21009 | -71.32815 | 0 ft | 1 kts | 9° |
| 2026-04-13 02:38 | 29.21010 | -71.32826 | 0 ft | 1 kts | 9° |
| 2026-04-13 02:39 | 29.21011 | -71.32838 | 0 ft | 1 kts | 8° |
| 2026-04-13 02:39 | 29.21012 | -71.32849 | 0 ft | 1 kts | 8° |
| 2026-04-13 02:39 | 29.21013 | -71.32861 | 0 ft | 1 kts | 8° |
| 2026-04-13 02:39 | 29.21014 | -71.32872 | 0 ft | 1 kts | 8° |
| 2026-04-13 02:40 | 29.21015 | -71.32884 | 0 ft | 1 kts | 8° |
| 2026-04-13 02:40 | 29.21016 | -71.32896 | 0 ft | 1 kts | 9° |
| 2026-04-13 02:40 | 29.21016 | -71.32909 | 0 ft | 1 kts | 8° |
| 2026-04-13 02:40 | 29.21017 | -71.32921 | 0 ft | 1 kts | 8° |
| 2026-04-13 02:41 | 29.21019 | -71.32934 | 0 ft | 1 kts | 9° |
| 2026-04-13 02:41 | 29.21020 | -71.32946 | 0 ft | 1 kts | 9° |
| 2026-04-13 02:41 | 29.21021 | -71.32958 | 0 ft | 1 kts | 9° |
| 2026-04-13 02:41 | 29.21022 | -71.32970 | 0 ft | 1 kts | 9° |
| 2026-04-13 02:42 | 29.21023 | -71.32982 | 0 ft | 1 kts | 9° |
| 2026-04-13 02:42 | 29.21024 | -71.32993 | 1 ft | 1 kts | 9° |
| 2026-04-13 02:42 | 29.21025 | -71.33004 | 0 ft | 1 kts | 9° |
| 2026-04-13 02:42 | 29.21026 | -71.33015 | 0 ft | 1 kts | 9° |
| 2026-04-13 02:43 | 29.21027 | -71.33028 | 0 ft | 1 kts | 9° |
| 2026-04-13 02:43 | 29.21028 | -71.33040 | 0 ft | 1 kts | 9° |
| 2026-04-13 02:43 | 29.21029 | -71.33053 | 1 ft | 1 kts | 9° |
| 2026-04-13 02:43 | 29.21031 | -71.33066 | 1 ft | 1 kts | 9° |
| 2026-04-13 02:44 | 29.21032 | -71.33079 | 0 ft | 1 kts | 9° |
| 2026-04-13 02:44 | 29.21033 | -71.33091 | 0 ft | 1 kts | 9° |
| 2026-04-13 02:44 | 29.21034 | -71.33102 | 0 ft | 1 kts | 9° |
| 2026-04-13 02:44 | 29.21036 | -71.33114 | 0 ft | 1 kts | 9° |
| 2026-04-13 02:45 | 29.21037 | -71.33125 | 1 ft | 1 kts | 9° |
| 2026-04-13 02:45 | 29.21038 | -71.33136 | 1 ft | 1 kts | 9° |
| 2026-04-13 02:45 | 29.21039 | -71.33148 | 0 ft | 1 kts | 9° |
| 2026-04-13 02:45 | 29.21040 | -71.33160 | 1 ft | 1 kts | 10° |
| 2026-04-13 02:46 | 29.21041 | -71.33173 | 0 ft | 1 kts | 10° |
| 2026-04-13 02:46 | 29.21042 | -71.33185 | 0 ft | 1 kts | 10° |
| 2026-04-13 02:46 | 29.21044 | -71.33198 | 1 ft | 1 kts | 10° |
| 2026-04-13 02:47 | 29.21047 | -71.33224 | 0 ft | 1 kts | 11° |
| 2026-04-13 02:47 | 29.21048 | -71.33236 | 0 ft | 1 kts | 11° |
| 2026-04-13 02:47 | 29.21050 | -71.33247 | 0 ft | 1 kts | 11° |
| 2026-04-13 02:47 | 29.21051 | -71.33258 | 1 ft | 1 kts | 11° |
| 2026-04-13 02:48 | 29.21052 | -71.33270 | 1 ft | 1 kts | 11° |
| 2026-04-13 02:48 | 29.21054 | -71.33281 | 0 ft | 1 kts | 11° |
| 2026-04-13 02:48 | 29.21055 | -71.33292 | 0 ft | 1 kts | 11° |
| 2026-04-13 02:48 | 29.21056 | -71.33305 | 1 ft | 1 kts | 11° |
| 2026-04-13 02:49 | 29.21057 | -71.33316 | 0 ft | 1 kts | 11° |
| 2026-04-13 02:49 | 29.21059 | -71.33328 | 0 ft | 1 kts | 11° |
| 2026-04-13 02:49 | 29.21060 | -71.33341 | 1 ft | 1 kts | 11° |
| 2026-04-13 02:49 | 29.21062 | -71.33353 | 0 ft | 1 kts | 11° |
| 2026-04-13 02:50 | 29.21063 | -71.33366 | 1 ft | 1 kts | 11° |
| 2026-04-13 02:50 | 29.21065 | -71.33379 | 0 ft | 1 kts | 11° |
| 2026-04-13 02:50 | 29.21066 | -71.33391 | 0 ft | 1 kts | 11° |
| 2026-04-13 02:50 | 29.21068 | -71.33402 | 1 ft | 1 kts | 11° |
| 2026-04-13 02:51 | 29.21069 | -71.33413 | 1 ft | 1 kts | 11° |
| 2026-04-13 02:51 | 29.21071 | -71.33425 | 1 ft | 1 kts | 11° |
| 2026-04-13 02:51 | 29.21072 | -71.33437 | 1 ft | 1 kts | 11° |
| 2026-04-13 02:51 | 29.21073 | -71.33450 | 0 ft | 1 kts | 11° |
| 2026-04-13 02:52 | 29.21075 | -71.33462 | 1 ft | 1 kts | 11° |
| 2026-04-13 02:52 | 29.21076 | -71.33474 | 0 ft | 1 kts | 11° |
| 2026-04-13 02:52 | 29.21078 | -71.33486 | 0 ft | 1 kts | 11° |
| 2026-04-13 02:52 | 29.21079 | -71.33500 | 1 ft | 1 kts | 11° |
| 2026-04-13 02:53 | 29.21081 | -71.33513 | 1 ft | 1 kts | 11° |
| 2026-04-13 02:53 | 29.21083 | -71.33525 | 0 ft | 1 kts | 12° |
| 2026-04-13 02:53 | 29.21084 | -71.33537 | 0 ft | 1 kts | 12° |
| 2026-04-13 02:53 | 29.21086 | -71.33549 | 1 ft | 1 kts | 12° |
| 2026-04-13 02:54 | 29.21088 | -71.33561 | 1 ft | 1 kts | 12° |
| 2026-04-13 02:54 | 29.21089 | -71.33572 | 1 ft | 1 kts | 11° |
| 2026-04-13 02:54 | 29.21090 | -71.33584 | 1 ft | 1 kts | 11° |
| 2026-04-13 02:54 | 29.21092 | -71.33594 | 0 ft | 1 kts | 11° |
| 2026-04-13 02:55 | 29.21093 | -71.33606 | 1 ft | 1 kts | 11° |
| 2026-04-13 02:55 | 29.21094 | -71.33618 | 1 ft | 1 kts | 11° |
| 2026-04-13 02:55 | 29.21096 | -71.33630 | 0 ft | 1 kts | 11° |
| 2026-04-13 02:55 | 29.21097 | -71.33643 | 1 ft | 1 kts | 11° |
| 2026-04-13 02:56 | 29.21099 | -71.33656 | 1 ft | 1 kts | 11° |
| 2026-04-13 02:56 | 29.21100 | -71.33668 | 1 ft | 1 kts | 11° |
| 2026-04-13 02:56 | 29.21102 | -71.33679 | 1 ft | 1 kts | 11° |
| 2026-04-13 02:56 | 29.21103 | -71.33690 | 0 ft | 1 kts | 10° |
| 2026-04-13 02:57 | 29.21104 | -71.33701 | 1 ft | 1 kts | 10° |
| 2026-04-13 02:57 | 29.21105 | -71.33712 | 1 ft | 1 kts | 10° |
| 2026-04-13 02:57 | 29.21106 | -71.33723 | 1 ft | 1 kts | 10° |
| 2026-04-13 02:57 | 29.21108 | -71.33735 | 1 ft | 1 kts | 10° |
| 2026-04-13 02:58 | 29.21109 | -71.33747 | 1 ft | 1 kts | 10° |
| 2026-04-13 02:58 | 29.21110 | -71.33759 | 0 ft | 1 kts | 10° |
| 2026-04-13 02:58 | 29.21111 | -71.33771 | 1 ft | 1 kts | 9° |
| 2026-04-13 02:58 | 29.21112 | -71.33783 | 0 ft | 1 kts | 9° |
| 2026-04-13 02:59 | 29.21114 | -71.33794 | 0 ft | 1 kts | 9° |
| 2026-04-13 02:59 | 29.21115 | -71.33807 | 1 ft | 1 kts | 9° |
| 2026-04-13 02:59 | 29.21116 | -71.33818 | 1 ft | 1 kts | 9° |
| 2026-04-13 02:59 | 29.21117 | -71.33830 | 1 ft | 1 kts | 9° |
| 2026-04-13 03:00 | 29.21118 | -71.33842 | 1 ft | 1 kts | 10° |
| 2026-04-13 03:00 | 29.21119 | -71.33854 | 1 ft | 1 kts | 10° |
| 2026-04-13 03:00 | 29.21121 | -71.33866 | 1 ft | 1 kts | 10° |
| 2026-04-13 03:00 | 29.21122 | -71.33879 | 1 ft | 1 kts | 10° |
| 2026-04-13 03:01 | 29.21123 | -71.33892 | 1 ft | 1 kts | 10° |
| 2026-04-13 03:01 | 29.21125 | -71.33905 | 1 ft | 1 kts | 10° |
| 2026-04-13 03:01 | 29.21126 | -71.33918 | 1 ft | 1 kts | 10° |
| 2026-04-13 03:01 | 29.21128 | -71.33930 | 1 ft | 1 kts | 10° |
| 2026-04-13 03:02 | 29.21129 | -71.33942 | 1 ft | 1 kts | 10° |
| 2026-04-13 03:02 | 29.21130 | -71.33954 | 1 ft | 1 kts | 10° |
| 2026-04-13 03:02 | 29.21131 | -71.33965 | 1 ft | 1 kts | 10° |
| 2026-04-13 03:02 | 29.21132 | -71.33977 | 1 ft | 1 kts | 10° |
| 2026-04-13 03:03 | 29.21134 | -71.33989 | 1 ft | 1 kts | 11° |
| 2026-04-13 03:03 | 29.21135 | -71.34001 | 1 ft | 1 kts | 11° |
| 2026-04-13 03:03 | 29.21137 | -71.34013 | 1 ft | 1 kts | 11° |